<?xml version='1.0' encoding='UTF-8'?><gpx version="1.1" creator="JPX - https://github.com/jenetics/jpx" xmlns="http://www.topografix.com/GPX/1/1"><trk><trkseg><trkpt lat="44.01497132882812" lon="8.18266757116898"><ele>13.0</ele><time>2026-03-22T14:44:10Z</time></trkpt><trkpt lat="44.0150352405132" lon="8.182707494657302"><ele>15.0</ele><time>2026-03-22T14:44:22Z</time></trkpt><trkpt lat="44.01506345764496" lon="8.182811831314371"><ele>17.0</ele><time>2026-03-22T14:44:31Z</time></trkpt><trkpt lat="44.01508774853813" lon="8.182896558884496"><ele>19.0</ele><time>2026-03-22T14:44:36Z</time></trkpt><trkpt lat="44.01511273115532" lon="8.18298293190914"><ele>21.0</ele><time>2026-03-22T14:44:41Z</time></trkpt><trkpt lat="44.01515879436284" lon="8.1830757450231"><ele>23.000000000000004</ele><time>2026-03-22T14:44:46Z</time></trkpt><trkpt lat="44.01522413935343" lon="8.183087660606194"><ele>25.0</ele><time>2026-03-22T14:44:49Z</time></trkpt><trkpt lat="44.01529779050112" lon="8.183107936030185"><ele>25.000000000000004</ele><time>2026-03-22T14:44:52Z</time></trkpt><trkpt lat="44.01536749531248" lon="8.183102908313217"><ele>25.0</ele><time>2026-03-22T14:44:54Z</time></trkpt><trkpt lat="44.01542650855714" lon="8.183139004005222"><ele>25.0</ele><time>2026-03-22T14:44:58Z</time></trkpt><trkpt lat="44.01548846785021" lon="8.18318046871837"><ele>25.0</ele><time>2026-03-22T14:45:03Z</time></trkpt><trkpt lat="44.01554971611013" lon="8.18323542134572"><ele>25.0</ele><time>2026-03-22T14:45:08Z</time></trkpt><trkpt lat="44.01560522579581" lon="8.18329228081902"><ele>25.000000000000004</ele><time>2026-03-22T14:45:13Z</time></trkpt><trkpt lat="44.01565066154001" lon="8.1833663206687"><ele>25.0</ele><time>2026-03-22T14:45:18Z</time></trkpt><trkpt lat="44.015712099632395" lon="8.183431859053483"><ele>24.142857142857146</ele><time>2026-03-22T14:45:23Z</time></trkpt><trkpt lat="44.01576217590094" lon="8.183496581671935"><ele>23.285714285714285</ele><time>2026-03-22T14:45:28Z</time></trkpt><trkpt lat="44.0158168357121" lon="8.183555049290012"><ele>22.42857142857143</ele><time>2026-03-22T14:45:33Z</time></trkpt><trkpt lat="44.01585429079424" lon="8.183640672237047"><ele>21.571428571428573</ele><time>2026-03-22T14:45:39Z</time></trkpt><trkpt lat="44.0158904955797" lon="8.183714959814715"><ele>20.714285714285715</ele><time>2026-03-22T14:45:44Z</time></trkpt><trkpt lat="44.01593233072855" lon="8.183798411901956"><ele>19.857142857142858</ele><time>2026-03-22T14:45:49Z</time></trkpt><trkpt lat="44.01596794738293" lon="8.183875087842532"><ele>19.0</ele><time>2026-03-22T14:45:54Z</time></trkpt><trkpt lat="44.016023120263206" lon="8.183920992658893"><ele>21.142857142857142</ele><time>2026-03-22T14:45:59Z</time></trkpt><trkpt lat="44.016039985320774" lon="8.184006539062818"><ele>23.285714285714285</ele><time>2026-03-22T14:46:03Z</time></trkpt><trkpt lat="44.016047203261564" lon="8.184097171341739"><ele>25.428571428571427</ele><time>2026-03-22T14:46:08Z</time></trkpt><trkpt lat="44.01606233012343" lon="8.184186693874665"><ele>27.57142857142857</ele><time>2026-03-22T14:46:13Z</time></trkpt><trkpt lat="44.01609474337785" lon="8.184284023902833"><ele>29.714285714285715</ele><time>2026-03-22T14:46:19Z</time></trkpt><trkpt lat="44.016145559587414" lon="8.184358366759444"><ele>31.857142857142854</ele><time>2026-03-22T14:46:23Z</time></trkpt><trkpt lat="44.01615825192292" lon="8.18445334465492"><ele>34.0</ele><time>2026-03-22T14:46:28Z</time></trkpt><trkpt lat="44.01617233010592" lon="8.184587150369845"><ele>33.99999999999999</ele><time>2026-03-22T14:46:37Z</time></trkpt><trkpt lat="44.01617953580585" lon="8.184692373991375"><ele>34.0</ele><time>2026-03-22T14:46:42Z</time></trkpt><trkpt lat="44.01621442477073" lon="8.184781536163829"><ele>34.0</ele><time>2026-03-22T14:46:47Z</time></trkpt><trkpt lat="44.01623722972264" lon="8.184883877682323"><ele>34.0</ele><time>2026-03-22T14:46:52Z</time></trkpt><trkpt lat="44.016272569168656" lon="8.184971120959215"><ele>34.0</ele><time>2026-03-22T14:46:58Z</time></trkpt><trkpt lat="44.01628741791898" lon="8.185057070625023"><ele>33.99999999999999</ele><time>2026-03-22T14:47:03Z</time></trkpt><trkpt lat="44.01630767801806" lon="8.185145420906702"><ele>34.0</ele><time>2026-03-22T14:47:08Z</time></trkpt><trkpt lat="44.016321702001285" lon="8.185238759496938"><ele>33.14285714285714</ele><time>2026-03-22T14:47:13Z</time></trkpt><trkpt lat="44.0163379668453" lon="8.18532757980652"><ele>32.285714285714285</ele><time>2026-03-22T14:47:18Z</time></trkpt><trkpt lat="44.01634889389318" lon="8.185419752878053"><ele>31.428571428571427</ele><time>2026-03-22T14:47:24Z</time></trkpt><trkpt lat="44.01636673025279" lon="8.185514004184848"><ele>30.57142857142857</ele><time>2026-03-22T14:47:30Z</time></trkpt><trkpt lat="44.01633859128006" lon="8.185610521489473"><ele>29.714285714285715</ele><time>2026-03-22T14:47:36Z</time></trkpt><trkpt lat="44.016369424037414" lon="8.18568891803615"><ele>28.857142857142858</ele><time>2026-03-22T14:47:40Z</time></trkpt><trkpt lat="44.01641119982341" lon="8.185777087043252"><ele>28.0</ele><time>2026-03-22T14:47:45Z</time></trkpt><trkpt lat="44.016440894942306" lon="8.185873500693674"><ele>27.714285714285715</ele><time>2026-03-22T14:47:50Z</time></trkpt><trkpt lat="44.01646963637014" lon="8.185955448662908"><ele>27.42857142857143</ele><time>2026-03-22T14:47:55Z</time></trkpt><trkpt lat="44.016495140683645" lon="8.18605270613494"><ele>27.142857142857142</ele><time>2026-03-22T14:48:00Z</time></trkpt><trkpt lat="44.016515556566446" lon="8.186150956361596"><ele>26.857142857142858</ele><time>2026-03-22T14:48:05Z</time></trkpt><trkpt lat="44.01654102274201" lon="8.186240649843516"><ele>26.571428571428573</ele><time>2026-03-22T14:48:10Z</time></trkpt><trkpt lat="44.01656453557506" lon="8.186332181891366"><ele>26.285714285714285</ele><time>2026-03-22T14:48:15.999Z</time></trkpt><trkpt lat="44.01658858340426" lon="8.186423586742603"><ele>26.0</ele><time>2026-03-22T14:48:20.999Z</time></trkpt><trkpt lat="44.016589236168706" lon="8.186519331847958"><ele>25.0</ele><time>2026-03-22T14:48:27Z</time></trkpt><trkpt lat="44.01662909352959" lon="8.186611742041425"><ele>24.0</ele><time>2026-03-22T14:48:32Z</time></trkpt><trkpt lat="44.016676936260595" lon="8.186696238550578"><ele>23.0</ele><time>2026-03-22T14:48:37Z</time></trkpt><trkpt lat="44.016728883438354" lon="8.186752097558822"><ele>22.0</ele><time>2026-03-22T14:48:41Z</time></trkpt><trkpt lat="44.01678303278063" lon="8.18681378716019"><ele>21.0</ele><time>2026-03-22T14:48:46Z</time></trkpt><trkpt lat="44.016837201291324" lon="8.186867586667017"><ele>20.0</ele><time>2026-03-22T14:48:51Z</time></trkpt><trkpt lat="44.016903151822504" lon="8.186927910070516"><ele>19.0</ele><time>2026-03-22T14:48:56Z</time></trkpt><trkpt lat="44.016948234089746" lon="8.186994264372151"><ele>24.57142857142857</ele><time>2026-03-22T14:49:00Z</time></trkpt><trkpt lat="44.01699846948131" lon="8.18705164417476"><ele>30.142857142857146</ele><time>2026-03-22T14:49:04Z</time></trkpt><trkpt lat="44.01705643213252" lon="8.187114755460732"><ele>35.71428571428572</ele><time>2026-03-22T14:49:09Z</time></trkpt><trkpt lat="44.01711019331601" lon="8.187165082369903"><ele>41.28571428571429</ele><time>2026-03-22T14:49:13Z</time></trkpt><trkpt lat="44.01717872516835" lon="8.187217848207773"><ele>46.85714285714286</ele><time>2026-03-22T14:49:18Z</time></trkpt><trkpt lat="44.01722260105914" lon="8.18729579301698"><ele>52.42857142857144</ele><time>2026-03-22T14:49:23Z</time></trkpt><trkpt lat="44.01725405702348" lon="8.18738286575954"><ele>58.00000000000001</ele><time>2026-03-22T14:49:28Z</time></trkpt><trkpt lat="44.017245514878496" lon="8.187478764127631"><ele>58.00000000000001</ele><time>2026-03-22T14:49:33Z</time></trkpt><trkpt lat="44.01719459355253" lon="8.187546698571133"><ele>58.0</ele><time>2026-03-22T14:49:38Z</time></trkpt><trkpt lat="44.017146212387054" lon="8.187625890242332"><ele>58.00000000000001</ele><time>2026-03-22T14:49:43Z</time></trkpt><trkpt lat="44.017127385797934" lon="8.187726686088647"><ele>58.00000000000001</ele><time>2026-03-22T14:49:48Z</time></trkpt><trkpt lat="44.017109925052644" lon="8.187820982160904"><ele>58.0</ele><time>2026-03-22T14:49:53Z</time></trkpt><trkpt lat="44.0171130805619" lon="8.187913432496018"><ele>58.00000000000001</ele><time>2026-03-22T14:49:58Z</time></trkpt><trkpt lat="44.01713105888031" lon="8.18801458928602"><ele>58.00000000000001</ele><time>2026-03-22T14:50:04Z</time></trkpt><trkpt lat="44.0171844966983" lon="8.188088424370951"><ele>58.00000000000001</ele><time>2026-03-22T14:50:11Z</time></trkpt><trkpt lat="44.01721785728715" lon="8.188167844442887"><ele>58.0</ele><time>2026-03-22T14:50:16Z</time></trkpt><trkpt lat="44.017257859532776" lon="8.18825580874048"><ele>58.00000000000001</ele><time>2026-03-22T14:50:21Z</time></trkpt><trkpt lat="44.01729692602947" lon="8.18833439677259"><ele>58.00000000000001</ele><time>2026-03-22T14:50:26Z</time></trkpt><trkpt lat="44.017323382399695" lon="8.188416568875807"><ele>58.0</ele><time>2026-03-22T14:50:31Z</time></trkpt><trkpt lat="44.01738786912777" lon="8.18847454870755"><ele>58.00000000000001</ele><time>2026-03-22T14:50:36Z</time></trkpt><trkpt lat="44.01742439683695" lon="8.18854970414722"><ele>58.00000000000001</ele><time>2026-03-22T14:50:41Z</time></trkpt><trkpt lat="44.01747240277492" lon="8.188623329238784"><ele>62.71428571428572</ele><time>2026-03-22T14:50:46Z</time></trkpt><trkpt lat="44.01753691752083" lon="8.18868971735489"><ele>67.42857142857143</ele><time>2026-03-22T14:50:52Z</time></trkpt><trkpt lat="44.01755300060386" lon="8.188774524681836"><ele>72.14285714285714</ele><time>2026-03-22T14:50:57Z</time></trkpt><trkpt lat="44.017514176258196" lon="8.188843641105521"><ele>76.85714285714286</ele><time>2026-03-22T14:51:02Z</time></trkpt><trkpt lat="44.017529221289024" lon="8.188952950763891"><ele>81.57142857142857</ele><time>2026-03-22T14:51:06Z</time></trkpt><trkpt lat="44.01755192296727" lon="8.18904178671833"><ele>86.28571428571429</ele><time>2026-03-22T14:51:11Z</time></trkpt><trkpt lat="44.017559935961245" lon="8.189134832288532"><ele>91.0</ele><time>2026-03-22T14:51:15Z</time></trkpt><trkpt lat="44.01755844938614" lon="8.189233085228217"><ele>91.0</ele><time>2026-03-22T14:51:20Z</time></trkpt><trkpt lat="44.01756768111132" lon="8.189335729351834"><ele>91.0</ele><time>2026-03-22T14:51:25Z</time></trkpt><trkpt lat="44.017575194787966" lon="8.189436313695646"><ele>91.0</ele><time>2026-03-22T14:51:30Z</time></trkpt><trkpt lat="44.01761048875748" lon="8.189556173727794"><ele>91.0</ele><time>2026-03-22T14:51:36Z</time></trkpt><trkpt lat="44.01756847281287" lon="8.189641316472883"><ele>91.0</ele><time>2026-03-22T14:51:42Z</time></trkpt><trkpt lat="44.01754392044863" lon="8.18974180811976"><ele>91.0</ele><time>2026-03-22T14:51:47Z</time></trkpt><trkpt lat="44.017525747920274" lon="8.189826356095587"><ele>91.42857142857143</ele><time>2026-03-22T14:51:53Z</time></trkpt><trkpt lat="44.0175361680841" lon="8.189929423826095"><ele>91.85714285714286</ele><time>2026-03-22T14:51:57Z</time></trkpt><trkpt lat="44.01754971442204" lon="8.190016083412228"><ele>92.28571428571428</ele><time>2026-03-22T14:52:01Z</time></trkpt><trkpt lat="44.01754051454778" lon="8.19010853331034"><ele>92.71428571428572</ele><time>2026-03-22T14:52:06Z</time></trkpt><trkpt lat="44.017517010029465" lon="8.190207909990722"><ele>93.14285714285714</ele><time>2026-03-22T14:52:12Z</time></trkpt><trkpt lat="44.01754850285347" lon="8.190286743969612"><ele>93.57142857142857</ele><time>2026-03-22T14:52:17Z</time></trkpt><trkpt lat="44.0176197961173" lon="8.190273035445498"><ele>94.0</ele><time>2026-03-22T14:52:22Z</time></trkpt><trkpt lat="44.0176794158841" lon="8.1903252811545"><ele>94.0</ele><time>2026-03-22T14:52:31.001Z</time></trkpt><trkpt lat="44.01774659903003" lon="8.190344138948081"><ele>94.0</ele><time>2026-03-22T14:52:39Z</time></trkpt><trkpt lat="44.01775719193037" lon="8.19022302273007"><ele>94.0</ele><time>2026-03-22T14:52:53Z</time></trkpt><trkpt lat="44.017789889722074" lon="8.190144924721475"><ele>94.0</ele><time>2026-03-22T14:53:17Z</time></trkpt><trkpt lat="44.01784859250646" lon="8.190098862519932"><ele>94.0</ele><time>2026-03-22T14:53:36Z</time></trkpt><trkpt lat="44.01783361729341" lon="8.190010838637408"><ele>94.0</ele><time>2026-03-22T14:53:42Z</time></trkpt><trkpt lat="44.017847366601174" lon="8.189922230196071"><ele>94.0</ele><time>2026-03-22T14:53:53Z</time></trkpt><trkpt lat="44.01788388767734" lon="8.18982546654078"><ele>94.0</ele><time>2026-03-22T14:54:00Z</time></trkpt><trkpt lat="44.01794770525474" lon="8.18984213169868"><ele>94.0</ele><time>2026-03-22T14:54:09Z</time></trkpt><trkpt lat="44.017982385653525" lon="8.18976863702699"><ele>94.0</ele><time>2026-03-22T14:54:14Z</time></trkpt><trkpt lat="44.01799418552841" lon="8.189680616421528"><ele>94.0</ele><time>2026-03-22T14:54:20Z</time></trkpt><trkpt lat="44.01806284093605" lon="8.189656918986067"><ele>94.0</ele><time>2026-03-22T14:54:25Z</time></trkpt><trkpt lat="44.01812809602063" lon="8.189642179433465"><ele>94.0</ele><time>2026-03-22T14:54:32.001Z</time></trkpt><trkpt lat="44.018198001450024" lon="8.18962527976347"><ele>94.0</ele><time>2026-03-22T14:54:40Z</time></trkpt><trkpt lat="44.01825930573083" lon="8.18960137060611"><ele>93.57142857142857</ele><time>2026-03-22T14:54:52Z</time></trkpt><trkpt lat="44.01831775272994" lon="8.1895595763407"><ele>93.14285714285714</ele><time>2026-03-22T14:54:59Z</time></trkpt><trkpt lat="44.018387536103795" lon="8.189580961347758"><ele>92.71428571428572</ele><time>2026-03-22T14:55:16Z</time></trkpt><trkpt lat="44.01845347351922" lon="8.189582020945904"><ele>92.28571428571428</ele><time>2026-03-22T14:55:21Z</time></trkpt><trkpt lat="44.01851557899738" lon="8.189603246852494"><ele>91.85714285714286</ele><time>2026-03-22T14:55:31Z</time></trkpt><trkpt lat="44.018580176826795" lon="8.189588522295589"><ele>91.42857142857143</ele><time>2026-03-22T14:55:39Z</time></trkpt><trkpt lat="44.01864425664057" lon="8.189567067330342"><ele>91.0</ele><time>2026-03-22T14:55:48Z</time></trkpt><trkpt lat="44.0186850984344" lon="8.18949303614588"><ele>96.71428571428572</ele><time>2026-03-22T14:55:58Z</time></trkpt><trkpt lat="44.018681470627044" lon="8.189405386367692"><ele>102.42857142857143</ele><time>2026-03-22T14:56:04Z</time></trkpt><trkpt lat="44.01863749380717" lon="8.189328824295652"><ele>108.14285714285714</ele><time>2026-03-22T14:56:09Z</time></trkpt><trkpt lat="44.018626954776764" lon="8.189229412136767"><ele>113.85714285714286</ele><time>2026-03-22T14:56:14Z</time></trkpt><trkpt lat="44.01864468353138" lon="8.189127380708404"><ele>119.57142857142858</ele><time>2026-03-22T14:56:20Z</time></trkpt><trkpt lat="44.0186714840945" lon="8.189046800354872"><ele>125.28571428571429</ele><time>2026-03-22T14:56:25Z</time></trkpt><trkpt lat="44.01871227564781" lon="8.188975761341338"><ele>131.0</ele><time>2026-03-22T14:56:31Z</time></trkpt><trkpt lat="44.018764287362195" lon="8.188923405035961"><ele>131.42857142857144</ele><time>2026-03-22T14:56:39.001Z</time></trkpt><trkpt lat="44.01881865081347" lon="8.188847384505936"><ele>131.85714285714286</ele><time>2026-03-22T14:56:49Z</time></trkpt><trkpt lat="44.018850526499484" lon="8.18875926179216"><ele>132.28571428571428</ele><time>2026-03-22T14:56:57Z</time></trkpt><trkpt lat="44.01889788086171" lon="8.188686869821035"><ele>132.71428571428572</ele><time>2026-03-22T14:57:02Z</time></trkpt><trkpt lat="44.018956575154434" lon="8.188638167360153"><ele>133.14285714285714</ele><time>2026-03-22T14:57:13Z</time></trkpt><trkpt lat="44.01897285726713" lon="8.188537826963238"><ele>133.57142857142858</ele><time>2026-03-22T14:57:22Z</time></trkpt><trkpt lat="44.01896718152885" lon="8.188450341005908"><ele>134.0</ele><time>2026-03-22T14:57:27Z</time></trkpt><trkpt lat="44.018964463079165" lon="8.188357382514745"><ele>134.0</ele><time>2026-03-22T14:57:32Z</time></trkpt><trkpt lat="44.01902681081917" lon="8.18831549270891"><ele>134.0</ele><time>2026-03-22T14:57:36Z</time></trkpt><trkpt lat="44.01909053182464" lon="8.18835175099666"><ele>134.0</ele><time>2026-03-22T14:57:44Z</time></trkpt><trkpt lat="44.01913562238729" lon="8.188425066552115"><ele>134.0</ele><time>2026-03-22T14:57:52Z</time></trkpt><trkpt lat="44.01918203281169" lon="8.188487918765704"><ele>134.0</ele><time>2026-03-22T14:58:04Z</time></trkpt><trkpt lat="44.01920823505194" lon="8.188581313486058"><ele>134.0</ele><time>2026-03-22T14:58:12Z</time></trkpt><trkpt lat="44.01922878475729" lon="8.188666288862807"><ele>134.0</ele><time>2026-03-22T14:58:18Z</time></trkpt><trkpt lat="44.019293115424134" lon="8.188716884202417"><ele>139.42857142857144</ele><time>2026-03-22T14:58:26Z</time></trkpt><trkpt lat="44.01935748548023" lon="8.188713186267865"><ele>144.85714285714286</ele><time>2026-03-22T14:58:37Z</time></trkpt><trkpt lat="44.01942373356145" lon="8.188681521812022"><ele>150.28571428571428</ele><time>2026-03-22T14:58:50Z</time></trkpt><trkpt lat="44.01950047831762" lon="8.188637544747383"><ele>155.71428571428572</ele><time>2026-03-22T14:59:02Z</time></trkpt><trkpt lat="44.01955800941001" lon="8.188586215752833"><ele>161.14285714285714</ele><time>2026-03-22T14:59:13Z</time></trkpt><trkpt lat="44.01961042690257" lon="8.188532582686332"><ele>166.57142857142858</ele><time>2026-03-22T14:59:23Z</time></trkpt><trkpt lat="44.0196609750944" lon="8.188468591164927"><ele>172.0</ele><time>2026-03-22T14:59:34Z</time></trkpt><trkpt lat="44.01967278025659" lon="8.18838034048434"><ele>172.0</ele><time>2026-03-22T14:59:44Z</time></trkpt><trkpt lat="44.019685659982926" lon="8.188283475498157"><ele>172.0</ele><time>2026-03-22T14:59:50Z</time></trkpt><trkpt lat="44.01975516682425" lon="8.18831048026749"><ele>172.0</ele><time>2026-03-22T14:59:57Z</time></trkpt><trkpt lat="44.01981246346125" lon="8.18838455741847"><ele>172.0</ele><time>2026-03-22T15:00:05Z</time></trkpt><trkpt lat="44.01987809282507" lon="8.1883854072108"><ele>172.0</ele><time>2026-03-22T15:00:12Z</time></trkpt><trkpt lat="44.0199639928166" lon="8.18832562653671"><ele>172.0</ele><time>2026-03-22T15:00:31Z</time></trkpt><trkpt lat="44.020063667518045" lon="8.188217116753226"><ele>175.42857142857144</ele><time>2026-03-22T15:02:12Z</time></trkpt><trkpt lat="44.02013144643759" lon="8.188212794692975"><ele>178.85714285714286</ele><time>2026-03-22T15:02:20Z</time></trkpt><trkpt lat="44.02010876983339" lon="8.18812607192501"><ele>182.28571428571428</ele><time>2026-03-22T15:02:26Z</time></trkpt><trkpt lat="44.020165250916406" lon="8.188061152026005"><ele>185.71428571428572</ele><time>2026-03-22T15:02:32.999Z</time></trkpt><trkpt lat="44.02022187553368" lon="8.187995296837316"><ele>189.14285714285714</ele><time>2026-03-22T15:02:42.999Z</time></trkpt><trkpt lat="44.02025865196776" lon="8.187918932164731"><ele>192.57142857142858</ele><time>2026-03-22T15:02:50.999Z</time></trkpt><trkpt lat="44.020307718685025" lon="8.187845226373812"><ele>196.0</ele><time>2026-03-22T15:02:59Z</time></trkpt><trkpt lat="44.02036848321831" lon="8.18780515446374"><ele>198.71428571428572</ele><time>2026-03-22T15:03:08Z</time></trkpt><trkpt lat="44.02042677634753" lon="8.187759502463505"><ele>201.42857142857144</ele><time>2026-03-22T15:03:19Z</time></trkpt><trkpt lat="44.020469963298225" lon="8.187692912473269"><ele>204.14285714285714</ele><time>2026-03-22T15:03:29Z</time></trkpt><trkpt lat="44.0205153505757" lon="8.187625566085805"><ele>206.85714285714286</ele><time>2026-03-22T15:03:36Z</time></trkpt><trkpt lat="44.02058216065986" lon="8.187591118883377"><ele>209.57142857142858</ele><time>2026-03-22T15:03:45Z</time></trkpt><trkpt lat="44.020648221038186" lon="8.187561127756192"><ele>212.28571428571428</ele><time>2026-03-22T15:03:54Z</time></trkpt><trkpt lat="44.02070203455536" lon="8.187512010539026"><ele>215.0</ele><time>2026-03-22T15:04:04Z</time></trkpt><trkpt lat="44.02075217063311" lon="8.18744856322452"><ele>215.0</ele><time>2026-03-22T15:04:12Z</time></trkpt><trkpt lat="44.02080501488104" lon="8.187390276052495"><ele>215.0</ele><time>2026-03-22T15:04:22Z</time></trkpt><trkpt lat="44.02087544837119" lon="8.187357974870915"><ele>215.0</ele><time>2026-03-22T15:04:30.999Z</time></trkpt><trkpt lat="44.02094227456174" lon="8.187342251168781"><ele>215.0</ele><time>2026-03-22T15:04:39.999Z</time></trkpt><trkpt lat="44.02100385591248" lon="8.187302313637181"><ele>215.0</ele><time>2026-03-22T15:04:50.999Z</time></trkpt><trkpt lat="44.02105869319604" lon="8.187241486580703"><ele>215.0</ele><time>2026-03-22T15:04:59Z</time></trkpt><trkpt lat="44.02111323032975" lon="8.187184180255269"><ele>215.0</ele><time>2026-03-22T15:05:06Z</time></trkpt><trkpt lat="44.021172778927024" lon="8.187144964347535"><ele>219.71428571428572</ele><time>2026-03-22T15:05:13Z</time></trkpt><trkpt lat="44.02123550419302" lon="8.187122971495658"><ele>224.42857142857144</ele><time>2026-03-22T15:05:23Z</time></trkpt><trkpt lat="44.02130305595446" lon="8.187105517267932"><ele>229.14285714285717</ele><time>2026-03-22T15:05:29Z</time></trkpt><trkpt lat="44.02136585591169" lon="8.187089887053478"><ele>233.85714285714286</ele><time>2026-03-22T15:05:39Z</time></trkpt><trkpt lat="44.021432484951454" lon="8.18707054680148"><ele>238.5714285714286</ele><time>2026-03-22T15:05:47Z</time></trkpt><trkpt lat="44.021499408671765" lon="8.187035824243367"><ele>243.2857142857143</ele><time>2026-03-22T15:05:58Z</time></trkpt><trkpt lat="44.0215538306845" lon="8.186975755849776"><ele>248.0</ele><time>2026-03-22T15:06:06Z</time></trkpt><trkpt lat="44.02160515632217" lon="8.186924473504172"><ele>252.0</ele><time>2026-03-22T15:06:12Z</time></trkpt><trkpt lat="44.02167602480029" lon="8.186919765097395"><ele>256.0</ele><time>2026-03-22T15:06:19Z</time></trkpt><trkpt lat="44.02174323397711" lon="8.186892354483604"><ele>260.0</ele><time>2026-03-22T15:06:26.999Z</time></trkpt><trkpt lat="44.02179638055013" lon="8.186835961656996"><ele>264.0</ele><time>2026-03-22T15:07:09Z</time></trkpt><trkpt lat="44.021847639602164" lon="8.186771732115995"><ele>268.0</ele><time>2026-03-22T15:07:18Z</time></trkpt><trkpt lat="44.02190072360919" lon="8.186704411938095"><ele>272.0</ele><time>2026-03-22T15:07:28Z</time></trkpt><trkpt lat="44.021960574300756" lon="8.186650839468184"><ele>276.0</ele><time>2026-03-22T15:07:36Z</time></trkpt><trkpt lat="44.022008714411314" lon="8.18658492388799"><ele>276.0</ele><time>2026-03-22T15:07:43Z</time></trkpt><trkpt lat="44.02206062810474" lon="8.186529148899451"><ele>276.0</ele><time>2026-03-22T15:07:49Z</time></trkpt><trkpt lat="44.02211201550887" lon="8.186470426321076"><ele>276.0</ele><time>2026-03-22T15:07:56Z</time></trkpt><trkpt lat="44.0221755292076" lon="8.186435210588593"><ele>276.0</ele><time>2026-03-22T15:08:02Z</time></trkpt><trkpt lat="44.02223170436877" lon="8.186393012592065"><ele>276.0</ele><time>2026-03-22T15:08:09Z</time></trkpt><trkpt lat="44.0222907160536" lon="8.186349862464295"><ele>276.0</ele><time>2026-03-22T15:08:16.999Z</time></trkpt><trkpt lat="44.02234679539345" lon="8.186309912134693"><ele>276.0</ele><time>2026-03-22T15:08:24.999Z</time></trkpt><trkpt lat="44.0224103985106" lon="8.18626460194848"><ele>275.8571428571429</ele><time>2026-03-22T15:08:37.999Z</time></trkpt><trkpt lat="44.022477996479736" lon="8.186214658623468"><ele>275.7142857142857</ele><time>2026-03-22T15:08:43.999Z</time></trkpt><trkpt lat="44.022539178852185" lon="8.186168140203028"><ele>275.57142857142856</ele><time>2026-03-22T15:08:49.999Z</time></trkpt><trkpt lat="44.0225943691085" lon="8.186124067339557"><ele>275.42857142857144</ele><time>2026-03-22T15:08:55.999Z</time></trkpt><trkpt lat="44.02264768430526" lon="8.186074472061426"><ele>275.2857142857143</ele><time>2026-03-22T15:09:01.999Z</time></trkpt><trkpt lat="44.022696393336524" lon="8.186016656760366"><ele>275.14285714285717</ele><time>2026-03-22T15:09:07.999Z</time></trkpt><trkpt lat="44.02273263716927" lon="8.18594478525634"><ele>275.0</ele><time>2026-03-22T15:09:16Z</time></trkpt><trkpt lat="44.022752604816716" lon="8.185861204689378"><ele>276.42857142857144</ele><time>2026-03-22T15:09:25Z</time></trkpt><trkpt lat="44.022775018288" lon="8.185773291888992"><ele>277.85714285714283</ele><time>2026-03-22T15:09:32Z</time></trkpt><trkpt lat="44.02282625073785" lon="8.185690735391855"><ele>279.2857142857143</ele><time>2026-03-22T15:09:37Z</time></trkpt><trkpt lat="44.02289070609175" lon="8.185637518382588"><ele>280.7142857142857</ele><time>2026-03-22T15:09:43Z</time></trkpt><trkpt lat="44.022961346142274" lon="8.185640838960305"><ele>282.14285714285717</ele><time>2026-03-22T15:09:48Z</time></trkpt><trkpt lat="44.02302755876688" lon="8.185633860512368"><ele>283.57142857142856</ele><time>2026-03-22T15:09:56Z</time></trkpt><trkpt lat="44.02306054538906" lon="8.185536912710832"><ele>285.0</ele><time>2026-03-22T15:10:04Z</time></trkpt><trkpt lat="44.023097589215446" lon="8.185442422918138"><ele>285.0</ele><time>2026-03-22T15:10:08Z</time></trkpt><trkpt lat="44.02315170535967" lon="8.185389552541038"><ele>285.0</ele><time>2026-03-22T15:10:17Z</time></trkpt><trkpt lat="44.02321503977142" lon="8.185344414456717"><ele>285.0</ele><time>2026-03-22T15:10:24Z</time></trkpt><trkpt lat="44.0232761541018" lon="8.185304123446123"><ele>285.0</ele><time>2026-03-22T15:10:31Z</time></trkpt><trkpt lat="44.02334523536866" lon="8.185274207903058"><ele>285.0</ele><time>2026-03-22T15:10:37.999Z</time></trkpt><trkpt lat="44.02340775740215" lon="8.185237551261446"><ele>285.0</ele><time>2026-03-22T15:10:46.999Z</time></trkpt><trkpt lat="44.023459363973224" lon="8.185173674473754"><ele>285.0</ele><time>2026-03-22T15:10:54.999Z</time></trkpt><trkpt lat="44.02350368525374" lon="8.185103505757182"><ele>287.0</ele><time>2026-03-22T15:10:59.999Z</time></trkpt><trkpt lat="44.02354880538415" lon="8.18504019346866"><ele>289.0</ele><time>2026-03-22T15:11:06.999Z</time></trkpt><trkpt lat="44.02361698266132" lon="8.184989447800916"><ele>291.0</ele><time>2026-03-22T15:11:13.999Z</time></trkpt><trkpt lat="44.02369215051082" lon="8.18495038022364"><ele>293.0</ele><time>2026-03-22T15:11:20Z</time></trkpt><trkpt lat="44.02374261661212" lon="8.184896244801136"><ele>295.0</ele><time>2026-03-22T15:11:26Z</time></trkpt><trkpt lat="44.02379325946715" lon="8.18483760876842"><ele>297.0</ele><time>2026-03-22T15:11:32Z</time></trkpt><trkpt lat="44.023849152836206" lon="8.184793477761191"><ele>299.0</ele><time>2026-03-22T15:11:38Z</time></trkpt><trkpt lat="44.02390308350684" lon="8.184734395037806"><ele>299.0</ele><time>2026-03-22T15:11:45Z</time></trkpt><trkpt lat="44.023940047922395" lon="8.184662405921951"><ele>299.0</ele><time>2026-03-22T15:11:50Z</time></trkpt><trkpt lat="44.023996646845816" lon="8.184601972601323"><ele>299.0</ele><time>2026-03-22T15:11:55Z</time></trkpt><trkpt lat="44.02405567422924" lon="8.184555319967414"><ele>299.0</ele><time>2026-03-22T15:12:02Z</time></trkpt><trkpt lat="44.02410567252803" lon="8.184486713704388"><ele>299.0</ele><time>2026-03-22T15:12:09Z</time></trkpt><trkpt lat="44.024147912827274" lon="8.184419899114053"><ele>299.0</ele><time>2026-03-22T15:12:17Z</time></trkpt><trkpt lat="44.02422445193773" lon="8.184434856391315"><ele>299.0</ele><time>2026-03-22T15:12:22Z</time></trkpt><trkpt lat="44.02431036941538" lon="8.184460427549569"><ele>303.7142857142857</ele><time>2026-03-22T15:12:26Z</time></trkpt><trkpt lat="44.02437997356795" lon="8.18443769132052"><ele>308.42857142857144</ele><time>2026-03-22T15:12:35Z</time></trkpt><trkpt lat="44.024446346789574" lon="8.1843943986954"><ele>313.1428571428571</ele><time>2026-03-22T15:12:43Z</time></trkpt><trkpt lat="44.024510964907584" lon="8.184365697873947"><ele>317.8571428571429</ele><time>2026-03-22T15:12:50Z</time></trkpt><trkpt lat="44.02457484247195" lon="8.18434205467421"><ele>322.5714285714286</ele><time>2026-03-22T15:12:56.999Z</time></trkpt><trkpt lat="44.02464572360403" lon="8.18429795083322"><ele>327.2857142857143</ele><time>2026-03-22T15:13:04.999Z</time></trkpt><trkpt lat="44.0247088043144" lon="8.1842663338843"><ele>332.0</ele><time>2026-03-22T15:13:13.999Z</time></trkpt><trkpt lat="44.0247682931446" lon="8.184232954905356"><ele>332.0</ele><time>2026-03-22T15:13:24Z</time></trkpt><trkpt lat="44.0248336617314" lon="8.184209533608945"><ele>332.0</ele><time>2026-03-22T15:13:32Z</time></trkpt><trkpt lat="44.02488819251899" lon="8.184254537499744"><ele>332.0</ele><time>2026-03-22T15:13:41Z</time></trkpt><trkpt lat="44.02495039957456" lon="8.18428235628996"><ele>332.0</ele><time>2026-03-22T15:13:48Z</time></trkpt><trkpt lat="44.02501054309132" lon="8.18431295537002"><ele>332.0</ele><time>2026-03-22T15:13:58Z</time></trkpt><trkpt lat="44.025035609344215" lon="8.184224213127406"><ele>332.0</ele><time>2026-03-22T15:14:04Z</time></trkpt><trkpt lat="44.02502848768721" lon="8.184127627987568"><ele>332.0</ele><time>2026-03-22T15:14:13Z</time></trkpt><trkpt lat="44.02504409470661" lon="8.184039461133045"><ele>336.85714285714283</ele><time>2026-03-22T15:14:20Z</time></trkpt><trkpt lat="44.02510608664358" lon="8.184011336411855"><ele>341.7142857142857</ele><time>2026-03-22T15:14:31Z</time></trkpt><trkpt lat="44.02516998755417" lon="8.184030574705877"><ele>346.57142857142856</ele><time>2026-03-22T15:14:39Z</time></trkpt><trkpt lat="44.02519424741858" lon="8.183947869251774"><ele>351.42857142857144</ele><time>2026-03-22T15:14:49Z</time></trkpt><trkpt lat="44.02519998634891" lon="8.18385005306777"><ele>356.28571428571433</ele><time>2026-03-22T15:14:58Z</time></trkpt><trkpt lat="44.02526755159006" lon="8.183857236469986"><ele>361.14285714285717</ele><time>2026-03-22T15:15:08.999Z</time></trkpt><trkpt lat="44.025335856290006" lon="8.18384738696235"><ele>366.0</ele><time>2026-03-22T15:15:23.999Z</time></trkpt><trkpt lat="44.02539835219088" lon="8.183862426463051"><ele>366.0</ele><time>2026-03-22T15:15:41Z</time></trkpt><trkpt lat="44.02543788416419" lon="8.183791269818075"><ele>366.0</ele><time>2026-03-22T15:15:55Z</time></trkpt><trkpt lat="44.02550823542003" lon="8.183761488169544"><ele>366.0</ele><time>2026-03-22T15:16:06Z</time></trkpt><trkpt lat="44.025569851037496" lon="8.183722094481013"><ele>366.0</ele><time>2026-03-22T15:16:14Z</time></trkpt><trkpt lat="44.02563124864345" lon="8.183686675998729"><ele>366.0</ele><time>2026-03-22T15:16:28Z</time></trkpt><trkpt lat="44.02565386862373" lon="8.183603971213483"><ele>366.0</ele><time>2026-03-22T15:16:41Z</time></trkpt><trkpt lat="44.025697309171576" lon="8.183537276693405"><ele>366.0</ele><time>2026-03-22T15:16:50Z</time></trkpt><trkpt lat="44.025753046292095" lon="8.18348692392267"><ele>366.0</ele><time>2026-03-22T15:17:03.999Z</time></trkpt><trkpt lat="44.02578800510351" lon="8.183406109438934"><ele>366.0</ele><time>2026-03-22T15:17:11.999Z</time></trkpt><trkpt lat="44.02582310107784" lon="8.183321380972696"><ele>366.0</ele><time>2026-03-22T15:17:19.999Z</time></trkpt><trkpt lat="44.02588020734763" lon="8.183284467808537"><ele>366.0</ele><time>2026-03-22T15:17:28.999Z</time></trkpt><trkpt lat="44.02593368250563" lon="8.1833578270923"><ele>366.0</ele><time>2026-03-22T15:17:41Z</time></trkpt><trkpt lat="44.02596995123612" lon="8.18327577748657"><ele>366.0</ele><time>2026-03-22T15:17:57Z</time></trkpt><trkpt lat="44.026023177272535" lon="8.18321712604809"><ele>366.0</ele><time>2026-03-22T15:18:07Z</time></trkpt><trkpt lat="44.02608666535685" lon="8.183165550653767"><ele>371.7142857142857</ele><time>2026-03-22T15:18:29Z</time></trkpt><trkpt lat="44.02614957860161" lon="8.183145636608902"><ele>377.42857142857144</ele><time>2026-03-22T15:18:38Z</time></trkpt><trkpt lat="44.02619751382133" lon="8.183213828079158"><ele>383.1428571428571</ele><time>2026-03-22T15:18:51Z</time></trkpt><trkpt lat="44.026249872529064" lon="8.183277450390523"><ele>388.8571428571429</ele><time>2026-03-22T15:18:59Z</time></trkpt><trkpt lat="44.02630462574242" lon="8.183329835133954"><ele>394.57142857142856</ele><time>2026-03-22T15:19:09.999Z</time></trkpt><trkpt lat="44.026365227922255" lon="8.183297853327145"><ele>400.2857142857143</ele><time>2026-03-22T15:19:23.999Z</time></trkpt><trkpt lat="44.02637274650859" lon="8.183202720230533"><ele>406.0</ele><time>2026-03-22T15:19:55Z</time></trkpt><trkpt lat="44.02644257800985" lon="8.183215810311895"><ele>406.14285714285717</ele><time>2026-03-22T15:20:07Z</time></trkpt><trkpt lat="44.026508678665586" lon="8.183263888433778"><ele>406.2857142857143</ele><time>2026-03-22T15:20:19Z</time></trkpt><trkpt lat="44.02657100960793" lon="8.183290655547884"><ele>406.42857142857144</ele><time>2026-03-22T15:20:27Z</time></trkpt><trkpt lat="44.02664104240952" lon="8.183303108722733"><ele>406.57142857142856</ele><time>2026-03-22T15:20:37Z</time></trkpt><trkpt lat="44.02670504082018" lon="8.183283008218748"><ele>406.7142857142857</ele><time>2026-03-22T15:20:47Z</time></trkpt><trkpt lat="44.02668814575204" lon="8.183183803396217"><ele>406.8571428571429</ele><time>2026-03-22T15:20:56Z</time></trkpt><trkpt lat="44.02675123234583" lon="8.183170969005523"><ele>407.0</ele><time>2026-03-22T15:21:07.999Z</time></trkpt><trkpt lat="44.026784861849805" lon="8.183089294468619"><ele>413.42857142857144</ele><time>2026-03-22T15:21:20.999Z</time></trkpt><trkpt lat="44.026795835035095" lon="8.183001071834116"><ele>419.8571428571429</ele><time>2026-03-22T15:21:28.999Z</time></trkpt><trkpt lat="44.02680134393744" lon="8.182912361569066"><ele>426.28571428571433</ele><time>2026-03-22T15:21:37.999Z</time></trkpt><trkpt lat="44.02684251953791" lon="8.18280889824621"><ele>432.7142857142857</ele><time>2026-03-22T15:21:47Z</time></trkpt><trkpt lat="44.02690801956736" lon="8.18282356511382"><ele>439.1428571428571</ele><time>2026-03-22T15:22:05Z</time></trkpt><trkpt lat="44.0269707908995" lon="8.182773048219133"><ele>445.5714285714286</ele><time>2026-03-22T15:22:17Z</time></trkpt><trkpt lat="44.02701175313457" lon="8.182706487711181"><ele>452.0</ele><time>2026-03-22T15:22:24Z</time></trkpt><trkpt lat="44.027048425547086" lon="8.182634071782788"><ele>452.0</ele><time>2026-03-22T15:22:34Z</time></trkpt><trkpt lat="44.02709267176931" lon="8.182566037441728"><ele>452.0</ele><time>2026-03-22T15:22:43Z</time></trkpt><trkpt lat="44.02715091221119" lon="8.182515298253774"><ele>452.0</ele><time>2026-03-22T15:22:54Z</time></trkpt><trkpt lat="44.02722697979444" lon="8.18250014810718"><ele>452.0</ele><time>2026-03-22T15:23:05.999Z</time></trkpt><trkpt lat="44.02729202900604" lon="8.182487577497701"><ele>452.0</ele><time>2026-03-22T15:23:16.999Z</time></trkpt><trkpt lat="44.02736356773637" lon="8.18248623284703"><ele>452.0</ele><time>2026-03-22T15:23:25.999Z</time></trkpt><trkpt lat="44.027433175166635" lon="8.18248870474847"><ele>452.0</ele><time>2026-03-22T15:23:37.999Z</time></trkpt><trkpt lat="44.027492959725635" lon="8.182440385381792"><ele>454.0</ele><time>2026-03-22T15:23:46.999Z</time></trkpt><trkpt lat="44.027562741963365" lon="8.18243243450081"><ele>456.0</ele><time>2026-03-22T15:24:03Z</time></trkpt><trkpt lat="44.02763145652417" lon="8.182420604706222"><ele>458.0</ele><time>2026-03-22T15:24:13Z</time></trkpt><trkpt lat="44.027698169893476" lon="8.182379235411412"><ele>460.0</ele><time>2026-03-22T15:24:21Z</time></trkpt><trkpt lat="44.02776084578289" lon="8.18236936368714"><ele>462.0</ele><time>2026-03-22T15:24:31Z</time></trkpt><trkpt lat="44.02782383781953" lon="8.182330023327868"><ele>464.0</ele><time>2026-03-22T15:24:41Z</time></trkpt><trkpt lat="44.02788782650359" lon="8.182297284645541"><ele>466.0</ele><time>2026-03-22T15:24:50Z</time></trkpt><trkpt lat="44.027953037291894" lon="8.182283603961444"><ele>466.0</ele><time>2026-03-22T15:25:06.999Z</time></trkpt><trkpt lat="44.02801647230413" lon="8.18227733987659"><ele>466.0</ele><time>2026-03-22T15:25:14.999Z</time></trkpt><trkpt lat="44.028076517969104" lon="8.182320910818872"><ele>466.0</ele><time>2026-03-22T15:25:29.999Z</time></trkpt><trkpt lat="44.02812663993075" lon="8.182378672208916"><ele>466.0</ele><time>2026-03-22T15:25:35.999Z</time></trkpt><trkpt lat="44.02819136903885" lon="8.182391566325302"><ele>466.0</ele><time>2026-03-22T15:25:45.999Z</time></trkpt><trkpt lat="44.028235132199036" lon="8.182327751212751"><ele>466.0</ele><time>2026-03-22T15:25:52.999Z</time></trkpt><trkpt lat="44.02830086250338" lon="8.182305769669988"><ele>466.0</ele><time>2026-03-22T15:26:01Z</time></trkpt><trkpt lat="44.02837382452826" lon="8.182367805560235"><ele>471.42857142857144</ele><time>2026-03-22T15:26:10Z</time></trkpt><trkpt lat="44.02841913927659" lon="8.182431324634011"><ele>476.85714285714283</ele><time>2026-03-22T15:26:17Z</time></trkpt><trkpt lat="44.0284796897682" lon="8.182465219144781"><ele>482.2857142857143</ele><time>2026-03-22T15:26:25Z</time></trkpt><trkpt lat="44.028520248406416" lon="8.182551056256107"><ele>487.7142857142857</ele><time>2026-03-22T15:26:44Z</time></trkpt><trkpt lat="44.02854205039663" lon="8.182635158377417"><ele>493.1428571428571</ele><time>2026-03-22T15:26:49Z</time></trkpt><trkpt lat="44.028529609126956" lon="8.182730224386288"><ele>498.57142857142856</ele><time>2026-03-22T15:26:55Z</time></trkpt><trkpt lat="44.028520509775255" lon="8.182823185464882"><ele>504.0</ele><time>2026-03-22T15:27:02Z</time></trkpt><trkpt lat="44.028484378948264" lon="8.182912670764587"><ele>504.0</ele><time>2026-03-22T15:27:09Z</time></trkpt><trkpt lat="44.02845450007375" lon="8.183000657621891"><ele>504.0</ele><time>2026-03-22T15:27:17Z</time></trkpt><trkpt lat="44.0284750710148" lon="8.18308731823912"><ele>504.0</ele><time>2026-03-22T15:27:34.999Z</time></trkpt><trkpt lat="44.02847706254383" lon="8.183175159727297"><ele>504.0</ele><time>2026-03-22T15:27:40.999Z</time></trkpt><trkpt lat="44.02845599564979" lon="8.183279980439591"><ele>504.0</ele><time>2026-03-22T15:27:46.999Z</time></trkpt><trkpt lat="44.02844709078425" lon="8.18337708277771"><ele>504.0</ele><time>2026-03-22T15:27:51.999Z</time></trkpt><trkpt lat="44.028450181609855" lon="8.183473995946011"><ele>504.0</ele><time>2026-03-22T15:27:57.999Z</time></trkpt><trkpt lat="44.02844808390671" lon="8.18357105866191"><ele>503.2857142857143</ele><time>2026-03-22T15:28:03.999Z</time></trkpt><trkpt lat="44.02846101638827" lon="8.183667805708373"><ele>502.57142857142856</ele><time>2026-03-22T15:28:11Z</time></trkpt><trkpt lat="44.02843979957247" lon="8.183776206714152"><ele>501.8571428571429</ele><time>2026-03-22T15:28:20Z</time></trkpt><trkpt lat="44.02844766568785" lon="8.183863541240266"><ele>501.14285714285717</ele><time>2026-03-22T15:28:30Z</time></trkpt><trkpt lat="44.02846012256635" lon="8.183955235105959"><ele>500.42857142857144</ele><time>2026-03-22T15:28:35Z</time></trkpt><trkpt lat="44.02850172779131" lon="8.184029478426698"><ele>499.7142857142858</ele><time>2026-03-22T15:28:42Z</time></trkpt><trkpt lat="44.028515358826226" lon="8.184122083646391"><ele>499.00000000000006</ele><time>2026-03-22T15:28:49Z</time></trkpt><trkpt lat="44.028572522399294" lon="8.184168882649502"><ele>497.4285714285715</ele><time>2026-03-22T15:28:56Z</time></trkpt><trkpt lat="44.02858708146044" lon="8.184280491373759"><ele>495.8571428571429</ele><time>2026-03-22T15:29:08Z</time></trkpt><trkpt lat="44.02860353651225" lon="8.184370831496182"><ele>494.2857142857143</ele><time>2026-03-22T15:29:23.999Z</time></trkpt><trkpt lat="44.028646615428364" lon="8.184460006755634"><ele>492.7142857142857</ele><time>2026-03-22T15:29:29.999Z</time></trkpt><trkpt lat="44.02867628119384" lon="8.184540534476655"><ele>491.1428571428571</ele><time>2026-03-22T15:29:37.999Z</time></trkpt><trkpt lat="44.02871814104005" lon="8.184620370813626"><ele>489.5714285714285</ele><time>2026-03-22T15:29:42.999Z</time></trkpt><trkpt lat="44.028743113320985" lon="8.184705694757906"><ele>487.99999999999994</ele><time>2026-03-22T15:29:47.999Z</time></trkpt><trkpt lat="44.028757010288274" lon="8.184803176832208"><ele>484.99999999999994</ele><time>2026-03-22T15:29:52.999Z</time></trkpt><trkpt lat="44.02877713432535" lon="8.184897520713298"><ele>482.0</ele><time>2026-03-22T15:29:56.999Z</time></trkpt><trkpt lat="44.02879157790346" lon="8.184993859709188"><ele>478.99999999999994</ele><time>2026-03-22T15:30:01.999Z</time></trkpt><trkpt lat="44.02880704455105" lon="8.18510316370763"><ele>475.99999999999994</ele><time>2026-03-22T15:30:07.999Z</time></trkpt><trkpt lat="44.0288118121705" lon="8.185192410676136"><ele>473.0</ele><time>2026-03-22T15:30:13Z</time></trkpt><trkpt lat="44.02881117929942" lon="8.185286414053898"><ele>469.99999999999994</ele><time>2026-03-22T15:30:18Z</time></trkpt><trkpt lat="44.028804876143404" lon="8.18537877492799"><ele>466.99999999999994</ele><time>2026-03-22T15:30:23Z</time></trkpt><trkpt lat="44.02879364652449" lon="8.185465479595633"><ele>466.99999999999994</ele><time>2026-03-22T15:30:28Z</time></trkpt><trkpt lat="44.02878813758935" lon="8.185554426487453"><ele>467.0</ele><time>2026-03-22T15:30:37Z</time></trkpt><trkpt lat="44.02878319959468" lon="8.185651479029582"><ele>466.99999999999994</ele><time>2026-03-22T15:30:43Z</time></trkpt><trkpt lat="44.028786368988435" lon="8.185740220747585"><ele>466.99999999999994</ele><time>2026-03-22T15:30:47Z</time></trkpt><trkpt lat="44.028796554023884" lon="8.185831700475044"><ele>467.0</ele><time>2026-03-22T15:30:52Z</time></trkpt><trkpt lat="44.02880877574961" lon="8.185930586760472"><ele>466.99999999999994</ele><time>2026-03-22T15:31:01Z</time></trkpt><trkpt lat="44.028817309989826" lon="8.186042019669395"><ele>466.99999999999994</ele><time>2026-03-22T15:31:08Z</time></trkpt><trkpt lat="44.02881771510063" lon="8.186133848310535"><ele>463.5714285714285</ele><time>2026-03-22T15:31:14Z</time></trkpt><trkpt lat="44.028808527341006" lon="8.186249593727744"><ele>460.1428571428571</ele><time>2026-03-22T15:31:22Z</time></trkpt><trkpt lat="44.02880767784317" lon="8.186338329058241"><ele>456.71428571428567</ele><time>2026-03-22T15:31:25.999Z</time></trkpt><trkpt lat="44.02880374590398" lon="8.186437989742526"><ele>453.2857142857142</ele><time>2026-03-22T15:31:31.999Z</time></trkpt><trkpt lat="44.02880443075991" lon="8.186532739660992"><ele>449.8571428571429</ele><time>2026-03-22T15:31:36.999Z</time></trkpt><trkpt lat="44.02881719193657" lon="8.186627999002939"><ele>446.42857142857144</ele><time>2026-03-22T15:31:42.999Z</time></trkpt><trkpt lat="44.028831534609665" lon="8.186714740624437"><ele>443.0</ele><time>2026-03-22T15:31:48.999Z</time></trkpt><trkpt lat="44.02886761777237" lon="8.186789982283432"><ele>443.0</ele><time>2026-03-22T15:31:54.999Z</time></trkpt><trkpt lat="44.02891304855644" lon="8.186864512131558"><ele>443.0</ele><time>2026-03-22T15:32:02.999Z</time></trkpt><trkpt lat="44.02895202248132" lon="8.186936975224668"><ele>443.0</ele><time>2026-03-22T15:32:07.999Z</time></trkpt><trkpt lat="44.028999658136506" lon="8.18702756566661"><ele>443.0</ele><time>2026-03-22T15:32:13.999Z</time></trkpt><trkpt lat="44.02904326061356" lon="8.187099862096025"><ele>443.0</ele><time>2026-03-22T15:32:21Z</time></trkpt><trkpt lat="44.02910044850928" lon="8.187191168115726"><ele>443.0</ele><time>2026-03-22T15:32:27Z</time></trkpt><trkpt lat="44.029148538841405" lon="8.18725455993953"><ele>443.0</ele><time>2026-03-22T15:32:34Z</time></trkpt><trkpt lat="44.029198649905545" lon="8.187324439145417"><ele>444.42857142857144</ele><time>2026-03-22T15:32:40Z</time></trkpt><trkpt lat="44.029246118227476" lon="8.18739305984913"><ele>445.8571428571429</ele><time>2026-03-22T15:32:46Z</time></trkpt><trkpt lat="44.02929032370525" lon="8.187456397939785"><ele>447.2857142857142</ele><time>2026-03-22T15:32:50Z</time></trkpt><trkpt lat="44.029341943227394" lon="8.18753042513189"><ele>448.71428571428567</ele><time>2026-03-22T15:32:59Z</time></trkpt><trkpt lat="44.029390964894446" lon="8.187591302720024"><ele>450.1428571428571</ele><time>2026-03-22T15:33:04Z</time></trkpt><trkpt lat="44.02944110831929" lon="8.18766348689002"><ele>451.5714285714285</ele><time>2026-03-22T15:33:10Z</time></trkpt><trkpt lat="44.02949666842536" lon="8.187714219353746"><ele>452.99999999999994</ele><time>2026-03-22T15:33:15Z</time></trkpt><trkpt lat="44.02954701057278" lon="8.187768572914955"><ele>452.99999999999994</ele><time>2026-03-22T15:33:20Z</time></trkpt><trkpt lat="44.029595629078784" lon="8.187837555745485"><ele>453.0</ele><time>2026-03-22T15:33:26Z</time></trkpt><trkpt lat="44.02963846769371" lon="8.187915715249845"><ele>452.99999999999994</ele><time>2026-03-22T15:33:32Z</time></trkpt><trkpt lat="44.02968285007817" lon="8.187998971331975"><ele>452.99999999999994</ele><time>2026-03-22T15:33:37.999Z</time></trkpt><trkpt lat="44.02973368866689" lon="8.188064244747865"><ele>453.0</ele><time>2026-03-22T15:33:42.999Z</time></trkpt><trkpt lat="44.029778265678104" lon="8.18813367887251"><ele>452.99999999999994</ele><time>2026-03-22T15:33:47.999Z</time></trkpt><trkpt lat="44.02982197717174" lon="8.188199140594794"><ele>452.99999999999994</ele><time>2026-03-22T15:33:52.999Z</time></trkpt><trkpt lat="44.02987181932643" lon="8.188274162605738"><ele>452.2857142857142</ele><time>2026-03-22T15:33:58.999Z</time></trkpt><trkpt lat="44.02992108525467" lon="8.188332065101136"><ele>451.57142857142856</ele><time>2026-03-22T15:34:10.999Z</time></trkpt><trkpt lat="44.02998020904825" lon="8.188401933657572"><ele>450.85714285714283</ele><time>2026-03-22T15:34:29Z</time></trkpt><trkpt lat="44.03002981134979" lon="8.188464401367876"><ele>450.1428571428571</ele><time>2026-03-22T15:34:36Z</time></trkpt><trkpt lat="44.0300785785399" lon="8.18853650634553"><ele>449.42857142857144</ele><time>2026-03-22T15:34:48Z</time></trkpt><trkpt lat="44.03011975492685" lon="8.188607787207381"><ele>448.7142857142857</ele><time>2026-03-22T15:34:57Z</time></trkpt><trkpt lat="44.03015608264135" lon="8.18868572660777"><ele>448.0</ele><time>2026-03-22T15:35:18Z</time></trkpt><trkpt lat="44.030189468497014" lon="8.188771139279996"><ele>445.14285714285717</ele><time>2026-03-22T15:35:29Z</time></trkpt><trkpt lat="44.0302245291296" lon="8.188853415324125"><ele>442.2857142857143</ele><time>2026-03-22T15:35:35Z</time></trkpt><trkpt lat="44.0302477490976" lon="8.18895519245093"><ele>439.42857142857144</ele><time>2026-03-22T15:35:42.999Z</time></trkpt><trkpt lat="44.03028158327315" lon="8.189039624846778"><ele>436.57142857142856</ele><time>2026-03-22T15:35:52.999Z</time></trkpt><trkpt lat="44.030312809073074" lon="8.189118963385749"><ele>433.7142857142857</ele><time>2026-03-22T15:36:01.999Z</time></trkpt><trkpt lat="44.03034594264638" lon="8.189204840394208"><ele>430.8571428571429</ele><time>2026-03-22T15:36:08.999Z</time></trkpt><trkpt lat="44.030385797602904" lon="8.189285789048814"><ele>428.0</ele><time>2026-03-22T15:36:18.999Z</time></trkpt><trkpt lat="44.03042324128187" lon="8.189360076216335"><ele>426.5714285714286</ele><time>2026-03-22T15:36:25.999Z</time></trkpt><trkpt lat="44.030472268080494" lon="8.189433209990428"><ele>425.14285714285717</ele><time>2026-03-22T15:36:40Z</time></trkpt><trkpt lat="44.03051013279908" lon="8.189507249475206"><ele>423.7142857142857</ele><time>2026-03-22T15:36:54Z</time></trkpt><trkpt lat="44.03054555919167" lon="8.189584077341733"><ele>422.28571428571433</ele><time>2026-03-22T15:37:01Z</time></trkpt><trkpt lat="44.030589995716106" lon="8.189654746855153"><ele>420.85714285714283</ele><time>2026-03-22T15:37:12Z</time></trkpt><trkpt lat="44.03062738055919" lon="8.189734097311879"><ele>419.42857142857144</ele><time>2026-03-22T15:37:22Z</time></trkpt><trkpt lat="44.03067881214552" lon="8.189801793381864"><ele>418.0</ele><time>2026-03-22T15:37:31Z</time></trkpt><trkpt lat="44.03072286538953" lon="8.189871687623633"><ele>413.2857142857143</ele><time>2026-03-22T15:37:39Z</time></trkpt><trkpt lat="44.03076634206756" lon="8.189939512474533"><ele>408.57142857142856</ele><time>2026-03-22T15:37:44Z</time></trkpt><trkpt lat="44.03080506182137" lon="8.190016642928196"><ele>403.8571428571429</ele><time>2026-03-22T15:37:50Z</time></trkpt><trkpt lat="44.030852590994314" lon="8.190083271706047"><ele>399.1428571428571</ele><time>2026-03-22T15:37:56Z</time></trkpt><trkpt lat="44.03090756422496" lon="8.19013664731052"><ele>394.42857142857144</ele><time>2026-03-22T15:38:03Z</time></trkpt><trkpt lat="44.03096195265316" lon="8.190201385418575"><ele>389.7142857142857</ele><time>2026-03-22T15:38:10.999Z</time></trkpt><trkpt lat="44.0310159181689" lon="8.19026344120787"><ele>385.0</ele><time>2026-03-22T15:38:17.999Z</time></trkpt><trkpt lat="44.03106509515838" lon="8.190329636644522"><ele>384.85714285714283</ele><time>2026-03-22T15:38:23.999Z</time></trkpt><trkpt lat="44.03111673759486" lon="8.190382351639503"><ele>384.7142857142857</ele><time>2026-03-22T15:38:29.999Z</time></trkpt><trkpt lat="44.031179138453815" lon="8.190443707042553"><ele>384.57142857142856</ele><time>2026-03-22T15:38:38Z</time></trkpt><trkpt lat="44.03123410925864" lon="8.190494930387871"><ele>384.42857142857144</ele><time>2026-03-22T15:38:45Z</time></trkpt><trkpt lat="44.03129117505969" lon="8.190548282187168"><ele>384.2857142857143</ele><time>2026-03-22T15:38:52Z</time></trkpt><trkpt lat="44.031356826451066" lon="8.190614571904774"><ele>384.1428571428571</ele><time>2026-03-22T15:39:01Z</time></trkpt><trkpt lat="44.03141535952168" lon="8.190671344367479"><ele>384.0</ele><time>2026-03-22T15:39:07Z</time></trkpt><trkpt lat="44.031473184187625" lon="8.190728580483462"><ele>380.85714285714283</ele><time>2026-03-22T15:39:12Z</time></trkpt><trkpt lat="44.031526719224054" lon="8.190781570638858"><ele>377.7142857142857</ele><time>2026-03-22T15:39:18Z</time></trkpt><trkpt lat="44.03158198303118" lon="8.19083504044992"><ele>374.57142857142856</ele><time>2026-03-22T15:39:24Z</time></trkpt><trkpt lat="44.03163605643533" lon="8.19088631080529"><ele>371.42857142857144</ele><time>2026-03-22T15:39:30Z</time></trkpt><trkpt lat="44.03169512076545" lon="8.190942839905588"><ele>368.2857142857143</ele><time>2026-03-22T15:39:35Z</time></trkpt><trkpt lat="44.03175689246936" lon="8.190987112910795"><ele>365.1428571428571</ele><time>2026-03-22T15:39:49Z</time></trkpt><trkpt lat="44.0318052542322" lon="8.19104973881113"><ele>362.0</ele><time>2026-03-22T15:39:57Z</time></trkpt><trkpt lat="44.03186169073371" lon="8.19110110534049"><ele>362.0</ele><time>2026-03-22T15:40:10Z</time></trkpt><trkpt lat="44.03191499780127" lon="8.191157603569081"><ele>362.0</ele><time>2026-03-22T15:40:17.999Z</time></trkpt><trkpt lat="44.03197260536081" lon="8.191221834639123"><ele>362.0</ele><time>2026-03-22T15:40:30.999Z</time></trkpt><trkpt lat="44.03203008542281" lon="8.191268017840217"><ele>362.0</ele><time>2026-03-22T15:40:39.999Z</time></trkpt><trkpt lat="44.03208182426057" lon="8.191326554885784"><ele>362.0</ele><time>2026-03-22T15:40:49Z</time></trkpt><trkpt lat="44.0321324032594" lon="8.191392616792365"><ele>362.0</ele><time>2026-03-22T15:41:00Z</time></trkpt><trkpt lat="44.0321736312958" lon="8.191464254240188"><ele>362.0</ele><time>2026-03-22T15:41:06Z</time></trkpt><trkpt lat="44.032219532127726" lon="8.191534107857274"><ele>359.0</ele><time>2026-03-22T15:41:14Z</time></trkpt><trkpt lat="44.032260822290326" lon="8.1916016557448"><ele>356.0</ele><time>2026-03-22T15:41:23Z</time></trkpt><trkpt lat="44.032306930852144" lon="8.191677086154678"><ele>353.0</ele><time>2026-03-22T15:41:32Z</time></trkpt><trkpt lat="44.032263564082335" lon="8.191606141598873"><ele>350.0</ele><time>2026-03-22T15:41:56Z</time></trkpt><trkpt lat="44.03220705177797" lon="8.191653853274534"><ele>347.0</ele><time>2026-03-22T15:42:16.999Z</time></trkpt><trkpt lat="44.03228278103927" lon="8.19166699186167"><ele>344.0</ele><time>2026-03-22T15:42:33.999Z</time></trkpt><trkpt lat="44.03233680995071" lon="8.191722462737193"><ele>341.0</ele><time>2026-03-22T15:42:41.999Z</time></trkpt><trkpt lat="44.03238353381519" lon="8.191787830463662"><ele>341.0</ele><time>2026-03-22T15:42:53Z</time></trkpt><trkpt lat="44.03244044977178" lon="8.191838725717092"><ele>341.0</ele><time>2026-03-22T15:42:59Z</time></trkpt><trkpt lat="44.03248387611518" lon="8.191904111992079"><ele>341.0</ele><time>2026-03-22T15:43:12Z</time></trkpt><trkpt lat="44.032419072842934" lon="8.191872115828852"><ele>341.0</ele><time>2026-03-22T15:44:08.999Z</time></trkpt><trkpt lat="44.03235474199775" lon="8.19189219198984"><ele>341.0</ele><time>2026-03-22T15:44:17.999Z</time></trkpt><trkpt lat="44.03228691773079" lon="8.191896022809177"><ele>341.0</ele><time>2026-03-22T15:44:24.999Z</time></trkpt><trkpt lat="44.03221933330604" lon="8.191898955887993"><ele>341.0</ele><time>2026-03-22T15:44:46.999Z</time></trkpt><trkpt lat="44.03215873566369" lon="8.191871072845831"><ele>341.0</ele><time>2026-03-22T15:45:20Z</time></trkpt><trkpt lat="44.03210558198376" lon="8.19182311258527"><ele>341.0</ele><time>2026-03-22T15:45:40Z</time></trkpt><trkpt lat="44.032035592804" lon="8.191733465342308"><ele>341.0</ele><time>2026-03-22T15:47:24Z</time></trkpt><trkpt lat="44.0320793866061" lon="8.19180577632688"><ele>341.0</ele><time>2026-03-22T15:47:29Z</time></trkpt><trkpt lat="44.03213109040046" lon="8.191860032824147"><ele>341.0</ele><time>2026-03-22T15:47:41Z</time></trkpt><trkpt lat="44.03209665634585" lon="8.191950017920202"><ele>341.0</ele><time>2026-03-22T15:47:55Z</time></trkpt><trkpt lat="44.0320681387648" lon="8.192032003457848"><ele>341.0</ele><time>2026-03-22T15:48:20Z</time></trkpt><trkpt lat="44.03204888132646" lon="8.19212728659796"><ele>341.0</ele><time>2026-03-22T15:48:56Z</time></trkpt><trkpt lat="44.032017453467176" lon="8.192207599286133"><ele>341.0</ele><time>2026-03-22T15:49:04Z</time></trkpt><trkpt lat="44.031973226376195" lon="8.192303544086926"><ele>341.0</ele><time>2026-03-22T15:49:27Z</time></trkpt><trkpt lat="44.03204759594716" lon="8.192354220251636"><ele>341.0</ele><time>2026-03-22T15:49:51Z</time></trkpt><trkpt lat="44.032031376462264" lon="8.192452832462193"><ele>341.0</ele><time>2026-03-22T15:50:36Z</time></trkpt><trkpt lat="44.03203605920305" lon="8.19254718786289"><ele>341.0</ele><time>2026-03-22T15:50:45Z</time></trkpt><trkpt lat="44.031992595686745" lon="8.192473721831217"><ele>341.0</ele><time>2026-03-22T15:50:59Z</time></trkpt><trkpt lat="44.03204285353933" lon="8.192527666422068"><ele>337.42857142857144</ele><time>2026-03-22T15:51:40Z</time></trkpt><trkpt lat="44.03202607528383" lon="8.192613620095925"><ele>333.8571428571429</ele><time>2026-03-22T15:51:47Z</time></trkpt><trkpt lat="44.031986049628564" lon="8.192693351919978"><ele>330.28571428571433</ele><time>2026-03-22T15:51:58Z</time></trkpt><trkpt lat="44.03197074810871" lon="8.192785960935504"><ele>326.7142857142857</ele><time>2026-03-22T15:52:30Z</time></trkpt><trkpt lat="44.03194581213747" lon="8.192868350947574"><ele>323.14285714285717</ele><time>2026-03-22T15:52:40Z</time></trkpt><trkpt lat="44.03193818414109" lon="8.192956622280011"><ele>319.5714285714286</ele><time>2026-03-22T15:52:56Z</time></trkpt><trkpt lat="44.03191927839463" lon="8.19304178373822"><ele>316.0</ele><time>2026-03-22T15:53:06Z</time></trkpt><trkpt lat="44.03183993161038" lon="8.193113895541225"><ele>313.5714285714286</ele><time>2026-03-22T15:53:30Z</time></trkpt><trkpt lat="44.03178753947414" lon="8.193185252114146"><ele>311.14285714285717</ele><time>2026-03-22T15:54:05Z</time></trkpt><trkpt lat="44.031765740567444" lon="8.193269280159676"><ele>308.7142857142857</ele><time>2026-03-22T15:54:26Z</time></trkpt><trkpt lat="44.0317027532786" lon="8.193282041110717"><ele>306.28571428571433</ele><time>2026-03-22T15:54:42Z</time></trkpt><trkpt lat="44.031642791963975" lon="8.193314292731767"><ele>303.8571428571429</ele><time>2026-03-22T15:55:16Z</time></trkpt><trkpt lat="44.031580061086274" lon="8.193338485440496"><ele>301.42857142857144</ele><time>2026-03-22T15:56:22Z</time></trkpt><trkpt lat="44.03151193723303" lon="8.193349850324882"><ele>299.0</ele><time>2026-03-22T15:56:59Z</time></trkpt><trkpt lat="44.031451403317774" lon="8.1933004559413"><ele>298.6666666666667</ele><time>2026-03-22T15:57:49.999Z</time></trkpt><trkpt lat="44.0313656776072" lon="8.19320720085486"><ele>298.33333333333337</ele><time>2026-03-22T15:59:40Z</time></trkpt><trkpt lat="44.03133473435053" lon="8.193113510410889"><ele>298.0</ele><time>2026-03-22T15:59:46Z</time></trkpt><trkpt lat="44.03128916350423" lon="8.193029115756097"><ele>297.6666666666667</ele><time>2026-03-22T15:59:51Z</time></trkpt><trkpt lat="44.03125601254969" lon="8.192934433613875"><ele>297.3333333333333</ele><time>2026-03-22T15:59:56Z</time></trkpt><trkpt lat="44.031196794737255" lon="8.192884831032517"><ele>297.0</ele><time>2026-03-22T16:00:01Z</time></trkpt><trkpt lat="44.03113129032091" lon="8.192864280667374"><ele>297.0</ele><time>2026-03-22T16:00:06Z</time></trkpt><trkpt lat="44.03106169127797" lon="8.192837598984065"><ele>297.0</ele><time>2026-03-22T16:00:11Z</time></trkpt><trkpt lat="44.0309889170839" lon="8.192821181252956"><ele>297.0</ele><time>2026-03-22T16:00:16Z</time></trkpt><trkpt lat="44.03093262578914" lon="8.192778641575332"><ele>297.0</ele><time>2026-03-22T16:00:21Z</time></trkpt><trkpt lat="44.03087508243503" lon="8.192713086848647"><ele>297.0</ele><time>2026-03-22T16:00:26Z</time></trkpt><trkpt lat="44.03081417287448" lon="8.192609636817352"><ele>297.0</ele><time>2026-03-22T16:00:32Z</time></trkpt><trkpt lat="44.03077995324772" lon="8.192530307293566"><ele>297.0</ele><time>2026-03-22T16:00:37Z</time></trkpt><trkpt lat="44.03075140846048" lon="8.19244245838873"><ele>297.8571428571429</ele><time>2026-03-22T16:00:42Z</time></trkpt><trkpt lat="44.03073879107845" lon="8.192337059729569"><ele>298.7142857142857</ele><time>2026-03-22T16:00:47Z</time></trkpt><trkpt lat="44.03067858409527" lon="8.192259222036881"><ele>299.57142857142856</ele><time>2026-03-22T16:00:54Z</time></trkpt><trkpt lat="44.0306297125571" lon="8.192199221840468"><ele>300.42857142857144</ele><time>2026-03-22T16:00:58Z</time></trkpt><trkpt lat="44.03058887714285" lon="8.192132367998285"><ele>301.2857142857143</ele><time>2026-03-22T16:01:03Z</time></trkpt><trkpt lat="44.03056164640575" lon="8.192044849697345"><ele>302.14285714285717</ele><time>2026-03-22T16:01:08Z</time></trkpt><trkpt lat="44.0305163054126" lon="8.191979795205947"><ele>303.0</ele><time>2026-03-22T16:01:13Z</time></trkpt><trkpt lat="44.03045359932823" lon="8.191927991871587"><ele>303.0</ele><time>2026-03-22T16:01:18Z</time></trkpt><trkpt lat="44.03039229395068" lon="8.19190137615609"><ele>303.0</ele><time>2026-03-22T16:01:22Z</time></trkpt><trkpt lat="44.03031215563033" lon="8.191866571107038"><ele>303.0</ele><time>2026-03-22T16:01:28Z</time></trkpt><trkpt lat="44.030254049267086" lon="8.191822718315152"><ele>303.0</ele><time>2026-03-22T16:01:34Z</time></trkpt><trkpt lat="44.030198564313075" lon="8.191757905559896"><ele>303.0</ele><time>2026-03-22T16:01:39Z</time></trkpt><trkpt lat="44.03014537916788" lon="8.191691052365622"><ele>303.0</ele><time>2026-03-22T16:01:45Z</time></trkpt><trkpt lat="44.03009336981134" lon="8.191628974432335"><ele>303.0</ele><time>2026-03-22T16:01:50Z</time></trkpt><trkpt lat="44.030022932414234" lon="8.191576656548648"><ele>301.42857142857144</ele><time>2026-03-22T16:01:55Z</time></trkpt><trkpt lat="44.02995200539007" lon="8.191551922532028"><ele>299.85714285714283</ele><time>2026-03-22T16:02:00Z</time></trkpt><trkpt lat="44.029856404898794" lon="8.191521152696907"><ele>298.2857142857143</ele><time>2026-03-22T16:02:05Z</time></trkpt><trkpt lat="44.02979190006805" lon="8.191479532341656"><ele>296.7142857142857</ele><time>2026-03-22T16:02:12Z</time></trkpt><trkpt lat="44.02973742097866" lon="8.191427724048342"><ele>295.14285714285717</ele><time>2026-03-22T16:02:17Z</time></trkpt><trkpt lat="44.029686773716115" lon="8.191374715552715"><ele>293.57142857142856</ele><time>2026-03-22T16:02:22Z</time></trkpt><trkpt lat="44.02962546657995" lon="8.19131383033814"><ele>292.0</ele><time>2026-03-22T16:02:27Z</time></trkpt><trkpt lat="44.029563560044565" lon="8.191266275391182"><ele>297.57142857142856</ele><time>2026-03-22T16:02:33Z</time></trkpt><trkpt lat="44.029501191731" lon="8.191217048270305"><ele>303.14285714285717</ele><time>2026-03-22T16:02:39Z</time></trkpt><trkpt lat="44.0294360598043" lon="8.191192287861144"><ele>308.7142857142857</ele><time>2026-03-22T16:02:44Z</time></trkpt><trkpt lat="44.029375635416415" lon="8.19115573335037"><ele>314.2857142857143</ele><time>2026-03-22T16:02:49Z</time></trkpt><trkpt lat="44.02930791360232" lon="8.191131540122296"><ele>319.85714285714283</ele><time>2026-03-22T16:02:54Z</time></trkpt><trkpt lat="44.02923320164444" lon="8.191111695727555"><ele>325.42857142857144</ele><time>2026-03-22T16:03:00Z</time></trkpt><trkpt lat="44.029169632506196" lon="8.191102565366927"><ele>331.0</ele><time>2026-03-22T16:03:05Z</time></trkpt><trkpt lat="44.029086433141956" lon="8.19110078967997"><ele>332.57142857142856</ele><time>2026-03-22T16:03:11Z</time></trkpt><trkpt lat="44.029013996206984" lon="8.191118245387836"><ele>334.1428571428571</ele><time>2026-03-22T16:03:17Z</time></trkpt><trkpt lat="44.02894234700905" lon="8.191138402745867"><ele>335.71428571428567</ele><time>2026-03-22T16:03:23Z</time></trkpt><trkpt lat="44.028867198211316" lon="8.191143821916814"><ele>337.2857142857143</ele><time>2026-03-22T16:03:29Z</time></trkpt><trkpt lat="44.02879582184623" lon="8.191141157125987"><ele>338.85714285714283</ele><time>2026-03-22T16:03:34Z</time></trkpt><trkpt lat="44.028725639975725" lon="8.191157071780825"><ele>340.4285714285714</ele><time>2026-03-22T16:03:39Z</time></trkpt><trkpt lat="44.02867066018299" lon="8.191202029739014"><ele>342.0</ele><time>2026-03-22T16:03:44Z</time></trkpt><trkpt lat="44.02861105320869" lon="8.191262464094274"><ele>341.99999999999994</ele><time>2026-03-22T16:03:49.001Z</time></trkpt><trkpt lat="44.02855581997489" lon="8.191321591198564"><ele>342.0</ele><time>2026-03-22T16:03:56.001Z</time></trkpt><trkpt lat="44.02849690351878" lon="8.191389792491284"><ele>342.0</ele><time>2026-03-22T16:04:01.001Z</time></trkpt><trkpt lat="44.02843469601445" lon="8.19143168370576"><ele>342.0</ele><time>2026-03-22T16:04:07Z</time></trkpt><trkpt lat="44.0283720172052" lon="8.191479341963365"><ele>342.0</ele><time>2026-03-22T16:04:13Z</time></trkpt><trkpt lat="44.02830706330886" lon="8.191507043474042"><ele>341.99999999999994</ele><time>2026-03-22T16:04:19Z</time></trkpt><trkpt lat="44.02824394579687" lon="8.191543160799885"><ele>342.0</ele><time>2026-03-22T16:04:26Z</time></trkpt><trkpt lat="44.0281912822542" lon="8.191600090183714"><ele>337.57142857142856</ele><time>2026-03-22T16:04:30Z</time></trkpt><trkpt lat="44.02814077033353" lon="8.191664620142074"><ele>333.1428571428571</ele><time>2026-03-22T16:04:36Z</time></trkpt><trkpt lat="44.028078169155286" lon="8.19172437876493"><ele>328.71428571428567</ele><time>2026-03-22T16:04:42Z</time></trkpt><trkpt lat="44.027996396634386" lon="8.191779278009728"><ele>324.2857142857143</ele><time>2026-03-22T16:04:49Z</time></trkpt><trkpt lat="44.02793608945552" lon="8.19180533658648"><ele>319.8571428571429</ele><time>2026-03-22T16:04:54Z</time></trkpt><trkpt lat="44.027876822652956" lon="8.191845549018216"><ele>315.4285714285714</ele><time>2026-03-22T16:05:00Z</time></trkpt><trkpt lat="44.02781147829221" lon="8.191872440084198"><ele>311.0</ele><time>2026-03-22T16:05:05Z</time></trkpt><trkpt lat="44.02774086316863" lon="8.191881164075108"><ele>311.0</ele><time>2026-03-22T16:05:11Z</time></trkpt><trkpt lat="44.02767289878554" lon="8.191861052287278"><ele>311.0</ele><time>2026-03-22T16:05:17Z</time></trkpt><trkpt lat="44.0276111099594" lon="8.191826876935613"><ele>311.0</ele><time>2026-03-22T16:05:22Z</time></trkpt><trkpt lat="44.02756211988211" lon="8.19177050215564"><ele>311.0</ele><time>2026-03-22T16:05:30Z</time></trkpt><trkpt lat="44.02751728158923" lon="8.191704390742506"><ele>311.0</ele><time>2026-03-22T16:05:36Z</time></trkpt><trkpt lat="44.027477647614845" lon="8.191625157183735"><ele>311.0</ele><time>2026-03-22T16:05:43Z</time></trkpt><trkpt lat="44.02744047175719" lon="8.191540027011218"><ele>311.0</ele><time>2026-03-22T16:05:49Z</time></trkpt><trkpt lat="44.02740056188384" lon="8.191458788852819"><ele>305.7142857142857</ele><time>2026-03-22T16:05:56.001Z</time></trkpt><trkpt lat="44.02743963423007" lon="8.191538424506113"><ele>300.42857142857144</ele><time>2026-03-22T16:06:24Z</time></trkpt><trkpt lat="44.02745568926224" lon="8.191624791560118"><ele>295.14285714285717</ele><time>2026-03-22T16:06:31Z</time></trkpt><trkpt lat="44.02741323839233" lon="8.191713706799886"><ele>289.8571428571429</ele><time>2026-03-22T16:06:36Z</time></trkpt><trkpt lat="44.0273931686493" lon="8.191809225305445"><ele>284.57142857142856</ele><time>2026-03-22T16:06:41Z</time></trkpt><trkpt lat="44.02738943119351" lon="8.191903153533818"><ele>279.28571428571433</ele><time>2026-03-22T16:06:48Z</time></trkpt><trkpt lat="44.02741266423995" lon="8.191989656263145"><ele>274.0</ele><time>2026-03-22T16:06:58Z</time></trkpt><trkpt lat="44.027454478932974" lon="8.1920649170176"><ele>274.00000000000006</ele><time>2026-03-22T16:07:04Z</time></trkpt><trkpt lat="44.02748578748905" lon="8.192149297397304"><ele>274.0</ele><time>2026-03-22T16:07:13Z</time></trkpt><trkpt lat="44.027525650360964" lon="8.192219199718496"><ele>274.0</ele><time>2026-03-22T16:07:20Z</time></trkpt><trkpt lat="44.02746249358896" lon="8.19225031608118"><ele>274.0</ele><time>2026-03-22T16:07:41Z</time></trkpt><trkpt lat="44.027461977112566" lon="8.192339279316323"><ele>274.0</ele><time>2026-03-22T16:07:53Z</time></trkpt><trkpt lat="44.02749211233919" lon="8.192424578503225"><ele>274.00000000000006</ele><time>2026-03-22T16:08:10Z</time></trkpt><trkpt lat="44.027521489226764" lon="8.192518455966372"><ele>274.0</ele><time>2026-03-22T16:08:21Z</time></trkpt><trkpt lat="44.027548125324714" lon="8.192623285725674"><ele>272.8571428571429</ele><time>2026-03-22T16:08:31Z</time></trkpt><trkpt lat="44.02755974453291" lon="8.192710405305352"><ele>271.7142857142857</ele><time>2026-03-22T16:08:44Z</time></trkpt><trkpt lat="44.02760346794685" lon="8.192781688651689"><ele>270.57142857142856</ele><time>2026-03-22T16:08:52Z</time></trkpt><trkpt lat="44.0276451735927" lon="8.192855751737964"><ele>269.42857142857144</ele><time>2026-03-22T16:09:02Z</time></trkpt><trkpt lat="44.02768366067227" lon="8.192930249410768"><ele>268.2857142857143</ele><time>2026-03-22T16:09:10Z</time></trkpt><trkpt lat="44.02775301283449" lon="8.192942006173894"><ele>267.14285714285717</ele><time>2026-03-22T16:09:17Z</time></trkpt><trkpt lat="44.02778812743771" lon="8.193033941367604"><ele>266.0</ele><time>2026-03-22T16:09:24Z</time></trkpt><trkpt lat="44.027829937317115" lon="8.19312418149132"><ele>266.0</ele><time>2026-03-22T16:09:33Z</time></trkpt><trkpt lat="44.02776694637598" lon="8.19315962748222"><ele>266.0</ele><time>2026-03-22T16:09:36Z</time></trkpt><trkpt lat="44.02769849229224" lon="8.193203188033733"><ele>266.0</ele><time>2026-03-22T16:09:41Z</time></trkpt><trkpt lat="44.02766237969347" lon="8.19328058016257"><ele>266.0</ele><time>2026-03-22T16:09:50Z</time></trkpt><trkpt lat="44.02772720235345" lon="8.193325609549547"><ele>266.0</ele><time>2026-03-22T16:09:56Z</time></trkpt><trkpt lat="44.02769861857997" lon="8.193415020315856"><ele>266.0</ele><time>2026-03-22T16:10:09Z</time></trkpt><trkpt lat="44.027727015353484" lon="8.193502362623846"><ele>266.0</ele><time>2026-03-22T16:10:16Z</time></trkpt><trkpt lat="44.02771722210328" lon="8.193598116448031"><ele>261.57142857142856</ele><time>2026-03-22T16:10:24Z</time></trkpt><trkpt lat="44.027713519803264" lon="8.193686151774651"><ele>257.1428571428571</ele><time>2026-03-22T16:10:32Z</time></trkpt><trkpt lat="44.02775236901295" lon="8.193761150554058"><ele>252.71428571428572</ele><time>2026-03-22T16:10:38Z</time></trkpt><trkpt lat="44.027725664835195" lon="8.193844861288737"><ele>248.28571428571428</ele><time>2026-03-22T16:10:46Z</time></trkpt><trkpt lat="44.027759329695115" lon="8.19393739546907"><ele>243.85714285714283</ele><time>2026-03-22T16:10:52Z</time></trkpt><trkpt lat="44.02772399164505" lon="8.194027210746485"><ele>239.42857142857142</ele><time>2026-03-22T16:10:58Z</time></trkpt><trkpt lat="44.02770599003933" lon="8.194122348074542"><ele>235.0</ele><time>2026-03-22T16:11:13Z</time></trkpt><trkpt lat="44.02773658011849" lon="8.19421523294466"><ele>231.85714285714283</ele><time>2026-03-22T16:11:26Z</time></trkpt><trkpt lat="44.02779280465081" lon="8.194280307441787"><ele>228.7142857142857</ele><time>2026-03-22T16:11:32Z</time></trkpt><trkpt lat="44.027854262793" lon="8.194332848190834"><ele>225.57142857142856</ele><time>2026-03-22T16:11:37Z</time></trkpt><trkpt lat="44.02788032635092" lon="8.194416042336213"><ele>222.42857142857142</ele><time>2026-03-22T16:11:44.999Z</time></trkpt><trkpt lat="44.027857051582664" lon="8.194502742028618"><ele>219.28571428571428</ele><time>2026-03-22T16:11:50.999Z</time></trkpt><trkpt lat="44.02787600119476" lon="8.194588557908824"><ele>216.1428571428571</ele><time>2026-03-22T16:12:00.999Z</time></trkpt><trkpt lat="44.02794074212225" lon="8.194606190504265"><ele>213.0</ele><time>2026-03-22T16:12:05.999Z</time></trkpt><trkpt lat="44.02800319678598" lon="8.194631843344434"><ele>212.99999999999997</ele><time>2026-03-22T16:12:14Z</time></trkpt><trkpt lat="44.02807034837111" lon="8.194597476608893"><ele>213.0</ele><time>2026-03-22T16:12:21Z</time></trkpt><trkpt lat="44.028071385887465" lon="8.194703815704372"><ele>213.0</ele><time>2026-03-22T16:12:25Z</time></trkpt><trkpt lat="44.028017380020465" lon="8.194766508302678"><ele>213.0</ele><time>2026-03-22T16:12:29Z</time></trkpt><trkpt lat="44.02796593038805" lon="8.194840811609815"><ele>213.0</ele><time>2026-03-22T16:12:34Z</time></trkpt><trkpt lat="44.02791424526877" lon="8.194898118542548"><ele>212.99999999999997</ele><time>2026-03-22T16:12:40Z</time></trkpt><trkpt lat="44.02784191143274" lon="8.19493643258544"><ele>213.0</ele><time>2026-03-22T16:12:46Z</time></trkpt><trkpt lat="44.02777373849717" lon="8.19495916117691"><ele>209.14285714285714</ele><time>2026-03-22T16:12:51Z</time></trkpt><trkpt lat="44.02770572426239" lon="8.194954211188662"><ele>205.28571428571428</ele><time>2026-03-22T16:12:55Z</time></trkpt><trkpt lat="44.02764118587371" lon="8.194926192787172"><ele>201.42857142857144</ele><time>2026-03-22T16:13:02Z</time></trkpt><trkpt lat="44.027577198011265" lon="8.194895924665323"><ele>197.57142857142856</ele><time>2026-03-22T16:13:09Z</time></trkpt><trkpt lat="44.02750843169479" lon="8.19486507105578"><ele>193.71428571428572</ele><time>2026-03-22T16:13:14Z</time></trkpt><trkpt lat="44.02744045767415" lon="8.194834880218236"><ele>189.85714285714286</ele><time>2026-03-22T16:13:20Z</time></trkpt><trkpt lat="44.02738733615087" lon="8.194773781294339"><ele>186.0</ele><time>2026-03-22T16:13:26Z</time></trkpt><trkpt lat="44.02733773909925" lon="8.194714666965107"><ele>184.71428571428572</ele><time>2026-03-22T16:13:31Z</time></trkpt><trkpt lat="44.02727935576212" lon="8.19464342188109"><ele>183.42857142857144</ele><time>2026-03-22T16:13:37Z</time></trkpt><trkpt lat="44.02722813383401" lon="8.19458839571965"><ele>182.14285714285717</ele><time>2026-03-22T16:13:42Z</time></trkpt><trkpt lat="44.0271790310715" lon="8.19452571539041"><ele>180.85714285714286</ele><time>2026-03-22T16:13:47Z</time></trkpt><trkpt lat="44.02712037481811" lon="8.194467877960026"><ele>179.57142857142856</ele><time>2026-03-22T16:13:53Z</time></trkpt><trkpt lat="44.0270479042969" lon="8.194437670948155"><ele>178.2857142857143</ele><time>2026-03-22T16:13:58Z</time></trkpt><trkpt lat="44.02698281955329" lon="8.194386803000434"><ele>177.0</ele><time>2026-03-22T16:14:03.999Z</time></trkpt><trkpt lat="44.026930952502646" lon="8.194335118089931"><ele>177.0</ele><time>2026-03-22T16:14:08.999Z</time></trkpt><trkpt lat="44.02687650834212" lon="8.194275777638452"><ele>177.0</ele><time>2026-03-22T16:14:13.999Z</time></trkpt><trkpt lat="44.02682505046892" lon="8.194211715934994"><ele>177.0</ele><time>2026-03-22T16:14:21Z</time></trkpt><trkpt lat="44.026773450394586" lon="8.194147051945203"><ele>177.0</ele><time>2026-03-22T16:14:27Z</time></trkpt><trkpt lat="44.026735946792186" lon="8.194073515463177"><ele>177.0</ele><time>2026-03-22T16:14:32Z</time></trkpt><trkpt lat="44.02671228736143" lon="8.193983449267202"><ele>177.0</ele><time>2026-03-22T16:14:37Z</time></trkpt><trkpt lat="44.02668183438596" lon="8.193889554949942"><ele>177.0</ele><time>2026-03-22T16:14:41Z</time></trkpt><trkpt lat="44.0266171411828" lon="8.193939239130211"><ele>173.66666666666666</ele><time>2026-03-22T16:14:48Z</time></trkpt><trkpt lat="44.02665063252806" lon="8.193861350822544"><ele>170.33333333333334</ele><time>2026-03-22T16:15:46Z</time></trkpt><trkpt lat="44.02657182281745" lon="8.19374109532483"><ele>167.0</ele><time>2026-03-22T16:15:50Z</time></trkpt><trkpt lat="44.02652440112741" lon="8.193658009237408"><ele>163.66666666666669</ele><time>2026-03-22T16:15:55.999Z</time></trkpt><trkpt lat="44.02647978160777" lon="8.193595737683694"><ele>160.33333333333334</ele><time>2026-03-22T16:16:00.999Z</time></trkpt><trkpt lat="44.02644099547627" lon="8.193517194641359"><ele>157.0</ele><time>2026-03-22T16:16:06.999Z</time></trkpt><trkpt lat="44.026394309849856" lon="8.193437304477076"><ele>156.99999999999997</ele><time>2026-03-22T16:16:13.999Z</time></trkpt><trkpt lat="44.02634172442338" lon="8.19337108246455"><ele>157.0</ele><time>2026-03-22T16:16:21.999Z</time></trkpt><trkpt lat="44.02628980176631" lon="8.193307560526119"><ele>157.0</ele><time>2026-03-22T16:16:29Z</time></trkpt><trkpt lat="44.02623108658339" lon="8.193243977648104"><ele>157.0</ele><time>2026-03-22T16:16:37Z</time></trkpt><trkpt lat="44.026179679397025" lon="8.19316417879096"><ele>157.0</ele><time>2026-03-22T16:16:45Z</time></trkpt><trkpt lat="44.02612632608787" lon="8.193116376880775"><ele>156.99999999999997</ele><time>2026-03-22T16:16:52Z</time></trkpt><trkpt lat="44.02607022275405" lon="8.193074854642205"><ele>157.0</ele><time>2026-03-22T16:16:57Z</time></trkpt><trkpt lat="44.02600511374915" lon="8.193116375418137"><ele>158.85714285714283</ele><time>2026-03-22T16:17:02Z</time></trkpt><trkpt lat="44.025939549916835" lon="8.193102423700525"><ele>160.71428571428572</ele><time>2026-03-22T16:17:09Z</time></trkpt><trkpt lat="44.02587685525642" lon="8.193114803609006"><ele>162.57142857142856</ele><time>2026-03-22T16:17:17Z</time></trkpt><trkpt lat="44.0258066069879" lon="8.193135271023852"><ele>164.42857142857142</ele><time>2026-03-22T16:17:24Z</time></trkpt><trkpt lat="44.02573761591107" lon="8.193132966285148"><ele>166.28571428571428</ele><time>2026-03-22T16:17:32Z</time></trkpt><trkpt lat="44.02566994627814" lon="8.193151223699633"><ele>168.14285714285714</ele><time>2026-03-22T16:17:40Z</time></trkpt><trkpt lat="44.02561221427581" lon="8.193194177737944"><ele>170.0</ele><time>2026-03-22T16:17:49Z</time></trkpt><trkpt lat="44.02554962990787" lon="8.193220391161287"><ele>170.0</ele><time>2026-03-22T16:17:57Z</time></trkpt><trkpt lat="44.02547904959865" lon="8.193210703228402"><ele>170.0</ele><time>2026-03-22T16:18:03.999Z</time></trkpt><trkpt lat="44.02540710959403" lon="8.193207896755016"><ele>170.0</ele><time>2026-03-22T16:18:13.999Z</time></trkpt><trkpt lat="44.02534672651582" lon="8.193181759058271"><ele>170.0</ele><time>2026-03-22T16:18:20.999Z</time></trkpt><trkpt lat="44.025280660287585" lon="8.19315521465471"><ele>170.0</ele><time>2026-03-22T16:18:26.999Z</time></trkpt><trkpt lat="44.025211016704986" lon="8.193152153954898"><ele>170.0</ele><time>2026-03-22T16:18:35Z</time></trkpt><trkpt lat="44.02514389493655" lon="8.19313174049653"><ele>170.0</ele><time>2026-03-22T16:18:40Z</time></trkpt><trkpt lat="44.025081844740875" lon="8.19310937848699"><ele>170.0</ele><time>2026-03-22T16:18:46Z</time></trkpt><trkpt lat="44.02501480191126" lon="8.193057529950304"><ele>170.0</ele><time>2026-03-22T16:18:52Z</time></trkpt><trkpt lat="44.02494644886173" lon="8.193050955144951"><ele>170.0</ele><time>2026-03-22T16:18:59Z</time></trkpt><trkpt lat="44.024881033516806" lon="8.193041755931011"><ele>170.0</ele><time>2026-03-22T16:19:06Z</time></trkpt><trkpt lat="44.02481699232921" lon="8.193033556471335"><ele>170.0</ele><time>2026-03-22T16:19:14Z</time></trkpt><trkpt lat="44.024822360918996" lon="8.193126680146264"><ele>170.0</ele><time>2026-03-22T16:19:26Z</time></trkpt><trkpt lat="44.02488089957573" lon="8.193171845672964"><ele>170.0</ele><time>2026-03-22T16:19:32Z</time></trkpt><trkpt lat="44.024930144589796" lon="8.193232073099606"><ele>159.57142857142858</ele><time>2026-03-22T16:19:42Z</time></trkpt><trkpt lat="44.024863111117625" lon="8.19321695717664"><ele>149.14285714285714</ele><time>2026-03-22T16:19:51Z</time></trkpt><trkpt lat="44.02489881483672" lon="8.193305464193655"><ele>138.71428571428572</ele><time>2026-03-22T16:20:01.999Z</time></trkpt><trkpt lat="44.02482743339432" lon="8.193312698529601"><ele>128.28571428571428</ele><time>2026-03-22T16:20:11.999Z</time></trkpt><trkpt lat="44.024755870169614" lon="8.19329022516776"><ele>117.85714285714286</ele><time>2026-03-22T16:20:21.999Z</time></trkpt><trkpt lat="44.02467644434011" lon="8.193314108973777"><ele>107.42857142857142</ele><time>2026-03-22T16:20:32.999Z</time></trkpt><trkpt lat="44.02460465589712" lon="8.193287267646685"><ele>97.0</ele><time>2026-03-22T16:20:41Z</time></trkpt><trkpt lat="44.02455496396395" lon="8.193233240181973"><ele>97.0</ele><time>2026-03-22T16:20:49Z</time></trkpt><trkpt lat="44.02448523779084" lon="8.193215601577265"><ele>97.0</ele><time>2026-03-22T16:20:57Z</time></trkpt><trkpt lat="44.02441804375238" lon="8.193192001463466"><ele>97.0</ele><time>2026-03-22T16:21:03Z</time></trkpt><trkpt lat="44.02435477044505" lon="8.193157026109358"><ele>97.0</ele><time>2026-03-22T16:21:09Z</time></trkpt><trkpt lat="44.024289468754695" lon="8.193112841448169"><ele>97.0</ele><time>2026-03-22T16:21:15Z</time></trkpt><trkpt lat="44.02422027426441" lon="8.193084326175521"><ele>97.0</ele><time>2026-03-22T16:21:22Z</time></trkpt><trkpt lat="44.024172904763695" lon="8.193020379275044"><ele>97.0</ele><time>2026-03-22T16:21:29Z</time></trkpt><trkpt lat="44.02414139457482" lon="8.192942355571914"><ele>95.14285714285714</ele><time>2026-03-22T16:21:35Z</time></trkpt><trkpt lat="44.02408413279871" lon="8.192879284720302"><ele>93.28571428571429</ele><time>2026-03-22T16:21:41Z</time></trkpt><trkpt lat="44.02402052348335" lon="8.192871465698676"><ele>91.42857142857143</ele><time>2026-03-22T16:21:46Z</time></trkpt><trkpt lat="44.02395220783709" lon="8.1928474317622"><ele>89.57142857142857</ele><time>2026-03-22T16:21:53Z</time></trkpt><trkpt lat="44.02388320295479" lon="8.192819378020648"><ele>87.71428571428572</ele><time>2026-03-22T16:22:00Z</time></trkpt><trkpt lat="44.0238157349311" lon="8.192800563208658"><ele>85.85714285714286</ele><time>2026-03-22T16:22:06Z</time></trkpt><trkpt lat="44.023749777280145" lon="8.19276574999861"><ele>84.0</ele><time>2026-03-22T16:22:11Z</time></trkpt><trkpt lat="44.023686136869664" lon="8.192719250830473"><ele>84.0</ele><time>2026-03-22T16:22:16.999Z</time></trkpt><trkpt lat="44.0236273637009" lon="8.192641317316472"><ele>84.0</ele><time>2026-03-22T16:22:22.999Z</time></trkpt><trkpt lat="44.02357301314017" lon="8.19256465724624"><ele>84.0</ele><time>2026-03-22T16:22:28.999Z</time></trkpt><trkpt lat="44.023526984222364" lon="8.192492290623644"><ele>84.0</ele><time>2026-03-22T16:22:34.999Z</time></trkpt><trkpt lat="44.023507279430355" lon="8.192399927287036"><ele>84.0</ele><time>2026-03-22T16:22:39.999Z</time></trkpt><trkpt lat="44.02348792116632" lon="8.192304138470968"><ele>84.0</ele><time>2026-03-22T16:22:46Z</time></trkpt><trkpt lat="44.02344555584508" lon="8.192234705491192"><ele>84.0</ele><time>2026-03-22T16:22:51Z</time></trkpt><trkpt lat="44.02341432589056" lon="8.192149808098716"><ele>85.85714285714286</ele><time>2026-03-22T16:22:56Z</time></trkpt><trkpt lat="44.02339490738425" lon="8.192065283185789"><ele>87.71428571428572</ele><time>2026-03-22T16:23:01Z</time></trkpt><trkpt lat="44.02337434513874" lon="8.191976210682451"><ele>89.57142857142857</ele><time>2026-03-22T16:23:06Z</time></trkpt><trkpt lat="44.02337013347278" lon="8.191878054505818"><ele>91.42857142857143</ele><time>2026-03-22T16:23:11Z</time></trkpt><trkpt lat="44.023343892964704" lon="8.19178266703328"><ele>93.28571428571429</ele><time>2026-03-22T16:23:17Z</time></trkpt><trkpt lat="44.0233142502562" lon="8.191704130025297"><ele>95.14285714285714</ele><time>2026-03-22T16:23:22Z</time></trkpt><trkpt lat="44.02330338560035" lon="8.19160604329895"><ele>97.0</ele><time>2026-03-22T16:23:27Z</time></trkpt><trkpt lat="44.023288655223226" lon="8.191516779970991"><ele>94.28571428571428</ele><time>2026-03-22T16:23:32Z</time></trkpt><trkpt lat="44.02327434866007" lon="8.191427205283716"><ele>91.57142857142858</ele><time>2026-03-22T16:23:37Z</time></trkpt><trkpt lat="44.0232578503409" lon="8.191336445282463"><ele>88.85714285714286</ele><time>2026-03-22T16:23:43Z</time></trkpt><trkpt lat="44.02324005903406" lon="8.191246905932825"><ele>86.14285714285714</ele><time>2026-03-22T16:23:49Z</time></trkpt><trkpt lat="44.02323228771118" lon="8.191149813549794"><ele>83.42857142857142</ele><time>2026-03-22T16:23:54Z</time></trkpt><trkpt lat="44.023211068921576" lon="8.191060770393994"><ele>80.71428571428572</ele><time>2026-03-22T16:24:01Z</time></trkpt><trkpt lat="44.023210330259154" lon="8.190961547270708"><ele>78.0</ele><time>2026-03-22T16:24:06.999Z</time></trkpt><trkpt lat="44.02321510408972" lon="8.190865487134651"><ele>78.0</ele><time>2026-03-22T16:24:12.999Z</time></trkpt><trkpt lat="44.02323672872909" lon="8.19077699903446"><ele>78.0</ele><time>2026-03-22T16:24:19.999Z</time></trkpt><trkpt lat="44.023269230703924" lon="8.190697178514155"><ele>78.0</ele><time>2026-03-22T16:24:28.999Z</time></trkpt><trkpt lat="44.023292892092776" lon="8.190599153932995"><ele>78.0</ele><time>2026-03-22T16:24:36.999Z</time></trkpt><trkpt lat="44.02331309942019" lon="8.190506691191182"><ele>78.0</ele><time>2026-03-22T16:24:41.999Z</time></trkpt><trkpt lat="44.02333709817049" lon="8.190424237805127"><ele>78.0</ele><time>2026-03-22T16:24:47Z</time></trkpt><trkpt lat="44.02333517748403" lon="8.190322421010062"><ele>78.0</ele><time>2026-03-22T16:24:53Z</time></trkpt><trkpt lat="44.023337084055335" lon="8.19021015904221"><ele>82.14285714285715</ele><time>2026-03-22T16:24:59Z</time></trkpt><trkpt lat="44.023336247873566" lon="8.190119910527029"><ele>86.28571428571428</ele><time>2026-03-22T16:25:05Z</time></trkpt><trkpt lat="44.02327478807408" lon="8.190056918112663"><ele>90.42857142857143</ele><time>2026-03-22T16:25:09Z</time></trkpt><trkpt lat="44.02320889318347" lon="8.190034433612622"><ele>94.57142857142858</ele><time>2026-03-22T16:25:13Z</time></trkpt><trkpt lat="44.02314339137697" lon="8.19001681042723"><ele>98.71428571428572</ele><time>2026-03-22T16:25:19Z</time></trkpt><trkpt lat="44.023067492259685" lon="8.190011844680383"><ele>102.85714285714286</ele><time>2026-03-22T16:25:23Z</time></trkpt><trkpt lat="44.02299757856006" lon="8.190042855346139"><ele>107.0</ele><time>2026-03-22T16:25:28Z</time></trkpt><trkpt lat="44.02294599401071" lon="8.19011516735811"><ele>107.00000000000001</ele><time>2026-03-22T16:25:30Z</time></trkpt><trkpt lat="44.02286807283035" lon="8.190119356657558"><ele>107.0</ele><time>2026-03-22T16:25:37Z</time></trkpt><trkpt lat="44.022807456632115" lon="8.19019277695114"><ele>107.0</ele><time>2026-03-22T16:25:42Z</time></trkpt><trkpt lat="44.02275531654937" lon="8.190258685180675"><ele>107.0</ele><time>2026-03-22T16:25:47Z</time></trkpt><trkpt lat="44.0226999881151" lon="8.190309397377199"><ele>107.0</ele><time>2026-03-22T16:25:53Z</time></trkpt><trkpt lat="44.02263976751504" lon="8.190363555305368"><ele>107.00000000000001</ele><time>2026-03-22T16:26:00Z</time></trkpt><trkpt lat="44.022574213411275" lon="8.190407031118934"><ele>107.0</ele><time>2026-03-22T16:26:05.999Z</time></trkpt><trkpt lat="44.022522515585955" lon="8.190468937064905"><ele>106.28571428571429</ele><time>2026-03-22T16:26:10.999Z</time></trkpt><trkpt lat="44.02246058048969" lon="8.190526603567807"><ele>105.57142857142857</ele><time>2026-03-22T16:26:16.999Z</time></trkpt><trkpt lat="44.02239663143922" lon="8.190573589267585"><ele>104.85714285714286</ele><time>2026-03-22T16:26:21.999Z</time></trkpt><trkpt lat="44.0223411839119" lon="8.190630354304153"><ele>104.14285714285714</ele><time>2026-03-22T16:26:26.999Z</time></trkpt><trkpt lat="44.0222729283183" lon="8.190664898881776"><ele>103.42857142857143</ele><time>2026-03-22T16:26:31.999Z</time></trkpt><trkpt lat="44.0222098314331" lon="8.190712107424215"><ele>102.71428571428572</ele><time>2026-03-22T16:26:37.999Z</time></trkpt><trkpt lat="44.02214135087973" lon="8.190757962260884"><ele>102.0</ele><time>2026-03-22T16:26:44.999Z</time></trkpt><trkpt lat="44.02207265669059" lon="8.190767438376174"><ele>102.0</ele><time>2026-03-22T16:26:50.999Z</time></trkpt><trkpt lat="44.02200452216336" lon="8.190754870489776"><ele>102.0</ele><time>2026-03-22T16:26:56Z</time></trkpt><trkpt lat="44.02193883033921" lon="8.190732455437068"><ele>102.0</ele><time>2026-03-22T16:27:02Z</time></trkpt><trkpt lat="44.02187277701553" lon="8.190704975140616"><ele>102.0</ele><time>2026-03-22T16:27:08Z</time></trkpt><trkpt lat="44.02180715602522" lon="8.190675964934625"><ele>102.0</ele><time>2026-03-22T16:27:14Z</time></trkpt><trkpt lat="44.02174252443003" lon="8.190628122440662"><ele>102.0</ele><time>2026-03-22T16:27:20Z</time></trkpt><trkpt lat="44.02168494403189" lon="8.19056489276459"><ele>102.0</ele><time>2026-03-22T16:27:25Z</time></trkpt><trkpt lat="44.02161974358202" lon="8.190527969105664"><ele>99.71428571428572</ele><time>2026-03-22T16:27:30Z</time></trkpt><trkpt lat="44.02155804012463" lon="8.190470540927173"><ele>97.42857142857143</ele><time>2026-03-22T16:27:36Z</time></trkpt><trkpt lat="44.02149760527441" lon="8.190423588174225"><ele>95.14285714285714</ele><time>2026-03-22T16:27:41Z</time></trkpt><trkpt lat="44.02143958350699" lon="8.190383304843605"><ele>92.85714285714286</ele><time>2026-03-22T16:27:46Z</time></trkpt><trkpt lat="44.0213877734422" lon="8.190327004816472"><ele>90.57142857142857</ele><time>2026-03-22T16:27:52Z</time></trkpt><trkpt lat="44.02133054283415" lon="8.19027860777987"><ele>88.28571428571429</ele><time>2026-03-22T16:27:58Z</time></trkpt><trkpt lat="44.02137471164338" lon="8.190358480206738"><ele>86.0</ele><time>2026-03-22T16:28:05Z</time></trkpt><trkpt lat="44.02131116280258" lon="8.190377625926873"><ele>86.00000000000001</ele><time>2026-03-22T16:28:14.999Z</time></trkpt><trkpt lat="44.02126147701252" lon="8.190313286124427"><ele>86.0</ele><time>2026-03-22T16:28:20.999Z</time></trkpt><trkpt lat="44.021211735643725" lon="8.190256884755643"><ele>86.0</ele><time>2026-03-22T16:28:25.999Z</time></trkpt><trkpt lat="44.02115907632611" lon="8.190203618299556"><ele>86.0</ele><time>2026-03-22T16:28:29.999Z</time></trkpt><trkpt lat="44.02110010449952" lon="8.190164544926162"><ele>86.0</ele><time>2026-03-22T16:28:33.999Z</time></trkpt><trkpt lat="44.02102219167567" lon="8.190129257471074"><ele>86.00000000000001</ele><time>2026-03-22T16:28:38.999Z</time></trkpt><trkpt lat="44.02095220409285" lon="8.190109027868635"><ele>86.0</ele><time>2026-03-22T16:28:43.999Z</time></trkpt><trkpt lat="44.02088665906468" lon="8.19009812092838"><ele>86.0</ele><time>2026-03-22T16:28:48.999Z</time></trkpt><trkpt lat="44.020809247407826" lon="8.190087177221105"><ele>86.0</ele><time>2026-03-22T16:28:54.999Z</time></trkpt><trkpt lat="44.020777381310545" lon="8.190197952770651"><ele>86.0</ele><time>2026-03-22T16:29:01Z</time></trkpt><trkpt lat="44.020802666201234" lon="8.190281773555933"><ele>86.0</ele><time>2026-03-22T16:29:04Z</time></trkpt><trkpt lat="44.02081216033148" lon="8.190409503226931"><ele>86.0</ele><time>2026-03-22T16:29:07Z</time></trkpt><trkpt lat="44.0207891879213" lon="8.190501647872082"><ele>86.0</ele><time>2026-03-22T16:29:22Z</time></trkpt><trkpt lat="44.02083262454656" lon="8.190566187453946"><ele>86.00000000000001</ele><time>2026-03-22T16:29:30Z</time></trkpt><trkpt lat="44.02082812150641" lon="8.190661499791615"><ele>86.0</ele><time>2026-03-22T16:29:38Z</time></trkpt><trkpt lat="44.02078441539513" lon="8.19073131695698"><ele>86.0</ele><time>2026-03-22T16:29:45Z</time></trkpt><trkpt lat="44.02074579240684" lon="8.190807006211765"><ele>86.0</ele><time>2026-03-22T16:29:53Z</time></trkpt><trkpt lat="44.02067248398498" lon="8.190829820330704"><ele>86.0</ele><time>2026-03-22T16:29:58Z</time></trkpt><trkpt lat="44.02059542975522" lon="8.190842080980262"><ele>86.00000000000001</ele><time>2026-03-22T16:30:04Z</time></trkpt><trkpt lat="44.02052331096562" lon="8.190853792191344"><ele>86.0</ele><time>2026-03-22T16:30:10Z</time></trkpt><trkpt lat="44.020455433969865" lon="8.190888452096141"><ele>81.00000000000001</ele><time>2026-03-22T16:30:16Z</time></trkpt><trkpt lat="44.02038886586003" lon="8.190887244623529"><ele>76.0</ele><time>2026-03-22T16:30:21.999Z</time></trkpt><trkpt lat="44.02032288272463" lon="8.190835291300841"><ele>71.0</ele><time>2026-03-22T16:30:30.999Z</time></trkpt><trkpt lat="44.02025236991399" lon="8.190847339362685"><ele>66.0</ele><time>2026-03-22T16:30:34.999Z</time></trkpt><trkpt lat="44.02018884419034" lon="8.190848039533636"><ele>61.0</ele><time>2026-03-22T16:30:40.999Z</time></trkpt><trkpt lat="44.02011813557431" lon="8.190848966734487"><ele>56.0</ele><time>2026-03-22T16:30:46.999Z</time></trkpt><trkpt lat="44.02005505722131" lon="8.190845516960861"><ele>51.0</ele><time>2026-03-22T16:30:50.999Z</time></trkpt><trkpt lat="44.01998654581946" lon="8.190877148985681"><ele>50.0</ele><time>2026-03-22T16:30:55.999Z</time></trkpt><trkpt lat="44.01992297983711" lon="8.19087889533868"><ele>49.0</ele><time>2026-03-22T16:31:00.999Z</time></trkpt><trkpt lat="44.01984902193427" lon="8.190882332104882"><ele>48.0</ele><time>2026-03-22T16:31:10Z</time></trkpt><trkpt lat="44.01978740099076" lon="8.190859850614206"><ele>47.0</ele><time>2026-03-22T16:31:13Z</time></trkpt><trkpt lat="44.0197263039828" lon="8.190834542347622"><ele>46.0</ele><time>2026-03-22T16:31:16Z</time></trkpt><trkpt lat="44.019653962036536" lon="8.190826383366401"><ele>45.0</ele><time>2026-03-22T16:31:21Z</time></trkpt><trkpt lat="44.01959172827138" lon="8.190798841703707"><ele>44.0</ele><time>2026-03-22T16:31:29Z</time></trkpt><trkpt lat="44.01959582436824" lon="8.190900190775833"><ele>44.0</ele><time>2026-03-22T16:31:35Z</time></trkpt><trkpt lat="44.01965713235302" lon="8.190944721048588"><ele>44.0</ele><time>2026-03-22T16:31:45Z</time></trkpt><trkpt lat="44.01971469151011" lon="8.19100484998451"><ele>44.0</ele><time>2026-03-22T16:31:50Z</time></trkpt><trkpt lat="44.01978362217763" lon="8.191017053742492"><ele>44.0</ele><time>2026-03-22T16:31:54Z</time></trkpt><trkpt lat="44.01984410326031" lon="8.191050179589636"><ele>44.0</ele><time>2026-03-22T16:31:59Z</time></trkpt><trkpt lat="44.019912203532776" lon="8.191058721569078"><ele>44.0</ele><time>2026-03-22T16:32:04Z</time></trkpt><trkpt lat="44.019979190459914" lon="8.19109654925125"><ele>44.0</ele><time>2026-03-22T16:32:09Z</time></trkpt><trkpt lat="44.02004845718612" lon="8.19111619126563"><ele>45.0</ele><time>2026-03-22T16:32:13Z</time></trkpt><trkpt lat="44.02010845327866" lon="8.19115931058485"><ele>46.0</ele><time>2026-03-22T16:32:18Z</time></trkpt><trkpt lat="44.02017692688945" lon="8.191193397170789"><ele>47.0</ele><time>2026-03-22T16:32:22.999Z</time></trkpt><trkpt lat="44.020239634435086" lon="8.191224613376116"><ele>48.0</ele><time>2026-03-22T16:32:27.999Z</time></trkpt><trkpt lat="44.020303447393424" lon="8.191255290097663"><ele>49.0</ele><time>2026-03-22T16:32:32.999Z</time></trkpt><trkpt lat="44.020375420260535" lon="8.19128877904056"><ele>50.0</ele><time>2026-03-22T16:32:37.999Z</time></trkpt><trkpt lat="44.020439674523914" lon="8.191308891404315"><ele>51.0</ele><time>2026-03-22T16:32:42.999Z</time></trkpt><trkpt lat="44.02050014909851" lon="8.191338632203003"><ele>51.0</ele><time>2026-03-22T16:32:47.999Z</time></trkpt><trkpt lat="44.02056071929485" lon="8.191374998405054"><ele>51.0</ele><time>2026-03-22T16:32:52.999Z</time></trkpt><trkpt lat="44.020634995930244" lon="8.191409559279355"><ele>51.0</ele><time>2026-03-22T16:32:58.999Z</time></trkpt><trkpt lat="44.02070367251048" lon="8.191441514471805"><ele>51.0</ele><time>2026-03-22T16:33:03.999Z</time></trkpt><trkpt lat="44.020764503266506" lon="8.191470882587753"><ele>51.0</ele><time>2026-03-22T16:33:08.999Z</time></trkpt><trkpt lat="44.020830305610154" lon="8.191503424746097"><ele>51.0</ele><time>2026-03-22T16:33:15Z</time></trkpt><trkpt lat="44.020891523068514" lon="8.191534050897447"><ele>51.0</ele><time>2026-03-22T16:33:20Z</time></trkpt><trkpt lat="44.02095059966178" lon="8.19156636849808"><ele>47.0</ele><time>2026-03-22T16:33:25Z</time></trkpt><trkpt lat="44.02101428169904" lon="8.191601969143676"><ele>43.0</ele><time>2026-03-22T16:33:30Z</time></trkpt><trkpt lat="44.0210730026889" lon="8.191636864166227"><ele>39.0</ele><time>2026-03-22T16:33:35Z</time></trkpt><trkpt lat="44.021134962457836" lon="8.191673683848313"><ele>35.0</ele><time>2026-03-22T16:33:40Z</time></trkpt><trkpt lat="44.02119959843137" lon="8.191710143176872"><ele>31.0</ele><time>2026-03-22T16:34:12Z</time></trkpt><trkpt lat="44.021268161362975" lon="8.19174903277956"><ele>27.0</ele><time>2026-03-22T16:34:17Z</time></trkpt><trkpt lat="44.021336282684054" lon="8.191779954653576"><ele>23.0</ele><time>2026-03-22T16:34:22Z</time></trkpt><trkpt lat="44.02141000681781" lon="8.191795236359633"><ele>23.0</ele><time>2026-03-22T16:34:29Z</time></trkpt><trkpt lat="44.02148007300126" lon="8.191787989823123"><ele>23.0</ele><time>2026-03-22T16:34:34.999Z</time></trkpt><trkpt lat="44.0215493450128" lon="8.191784232067294"><ele>23.0</ele><time>2026-03-22T16:34:38.999Z</time></trkpt><trkpt lat="44.02160919209313" lon="8.191839125383265"><ele>23.0</ele><time>2026-03-22T16:34:41.999Z</time></trkpt><trkpt lat="44.02164786747799" lon="8.191917687576566"><ele>23.0</ele><time>2026-03-22T16:34:46.999Z</time></trkpt><trkpt lat="44.021688921615265" lon="8.191993226790357"><ele>23.0</ele><time>2026-03-22T16:34:51.999Z</time></trkpt><trkpt lat="44.02174504734189" lon="8.19205226225707"><ele>23.0</ele><time>2026-03-22T16:34:57.999Z</time></trkpt><trkpt lat="44.02181095585791" lon="8.192072558301625"><ele>24.857142857142858</ele><time>2026-03-22T16:35:04.999Z</time></trkpt><trkpt lat="44.02187360928374" lon="8.192041965360884"><ele>26.714285714285715</ele><time>2026-03-22T16:35:10.999Z</time></trkpt><trkpt lat="44.02193094919456" lon="8.192005197311511"><ele>28.571428571428573</ele><time>2026-03-22T16:35:17Z</time></trkpt><trkpt lat="44.02201031251852" lon="8.192008315836516"><ele>30.42857142857143</ele><time>2026-03-22T16:35:20Z</time></trkpt><trkpt lat="44.0220561051158" lon="8.192094376918249"><ele>32.285714285714285</ele><time>2026-03-22T16:35:24Z</time></trkpt><trkpt lat="44.022050405770045" lon="8.192197125808937"><ele>34.142857142857146</ele><time>2026-03-22T16:35:28Z</time></trkpt><trkpt lat="44.02198962935325" lon="8.192167126141541"><ele>36.0</ele><time>2026-03-22T16:35:33Z</time></trkpt><trkpt lat="44.02192363222988" lon="8.192153629860398"><ele>36.00000000000001</ele><time>2026-03-22T16:35:38Z</time></trkpt><trkpt lat="44.02187539978387" lon="8.192222911255524"><ele>36.0</ele><time>2026-03-22T16:35:43Z</time></trkpt><trkpt lat="44.02192714765156" lon="8.19227380314136"><ele>36.0</ele><time>2026-03-22T16:35:46Z</time></trkpt><trkpt lat="44.021997446099924" lon="8.192306461657948"><ele>36.0</ele><time>2026-03-22T16:35:51Z</time></trkpt><trkpt lat="44.022063554526675" lon="8.192351042640459"><ele>36.0</ele><time>2026-03-22T16:35:57Z</time></trkpt><trkpt lat="44.022039369368066" lon="8.19243289075128"><ele>36.00000000000001</ele><time>2026-03-22T16:36:11Z</time></trkpt><trkpt lat="44.022027719081635" lon="8.192525967282478"><ele>36.0</ele><time>2026-03-22T16:36:15Z</time></trkpt><trkpt lat="44.022024402632454" lon="8.192614631613186"><ele>31.85714285714286</ele><time>2026-03-22T16:36:18Z</time></trkpt><trkpt lat="44.022004144744216" lon="8.19269956741293"><ele>27.714285714285715</ele><time>2026-03-22T16:36:22Z</time></trkpt><trkpt lat="44.021940330262275" lon="8.192738813149754"><ele>23.571428571428573</ele><time>2026-03-22T16:36:27Z</time></trkpt><trkpt lat="44.021887474419465" lon="8.192688328007566"><ele>19.42857142857143</ele><time>2026-03-22T16:36:33Z</time></trkpt><trkpt lat="44.02184125668307" lon="8.192613629469522"><ele>15.285714285714286</ele><time>2026-03-22T16:36:38.999Z</time></trkpt><trkpt lat="44.021783983375016" lon="8.19257089226637"><ele>11.142857142857142</ele><time>2026-03-22T16:36:44.999Z</time></trkpt><trkpt lat="44.021748037120304" lon="8.19249689475649"><ele>7.0</ele><time>2026-03-22T16:36:49.999Z</time></trkpt><trkpt lat="44.02168925156094" lon="8.192441415745263"><ele>6.142857142857143</ele><time>2026-03-22T16:36:54.999Z</time></trkpt><trkpt lat="44.02163224268477" lon="8.192392707906599"><ele>5.285714285714286</ele><time>2026-03-22T16:36:58.999Z</time></trkpt><trkpt lat="44.021559490656145" lon="8.192339658785585"><ele>4.428571428571429</ele><time>2026-03-22T16:37:04.999Z</time></trkpt><trkpt lat="44.02150178434856" lon="8.192287678617708"><ele>3.571428571428571</ele><time>2026-03-22T16:37:10.999Z</time></trkpt><trkpt lat="44.021443804231" lon="8.192252417261708"><ele>2.7142857142857144</ele><time>2026-03-22T16:37:15.999Z</time></trkpt><trkpt lat="44.021383266807284" lon="8.192209784455695"><ele>1.8571428571428572</ele><time>2026-03-22T16:37:20.999Z</time></trkpt><trkpt lat="44.02131401590257" lon="8.192199715939788"><ele>1.0</ele><time>2026-03-22T16:37:26Z</time></trkpt><trkpt lat="44.02124046082403" lon="8.1921815442187"><ele>2.7142857142857144</ele><time>2026-03-22T16:37:32Z</time></trkpt><trkpt lat="44.02117766347418" lon="8.192152334768293"><ele>4.428571428571429</ele><time>2026-03-22T16:37:37Z</time></trkpt><trkpt lat="44.02111486942542" lon="8.192134451639506"><ele>6.142857142857142</ele><time>2026-03-22T16:37:42Z</time></trkpt><trkpt lat="44.02103746200944" lon="8.19210500767405"><ele>7.857142857142858</ele><time>2026-03-22T16:37:48Z</time></trkpt><trkpt lat="44.02097012421912" lon="8.192094398690369"><ele>9.571428571428573</ele><time>2026-03-22T16:37:53Z</time></trkpt><trkpt lat="44.02090031934918" lon="8.192089877763854"><ele>11.285714285714285</ele><time>2026-03-22T16:37:58Z</time></trkpt><trkpt lat="44.02083313991293" lon="8.192068272607399"><ele>13.0</ele><time>2026-03-22T16:38:03Z</time></trkpt><trkpt lat="44.020769763871556" lon="8.192045857291138"><ele>13.0</ele><time>2026-03-22T16:38:08Z</time></trkpt><trkpt lat="44.020703082149495" lon="8.19202758659737"><ele>13.0</ele><time>2026-03-22T16:38:13Z</time></trkpt><trkpt lat="44.02062880821113" lon="8.192003386063881"><ele>13.0</ele><time>2026-03-22T16:38:18Z</time></trkpt><trkpt lat="44.02055824138884" lon="8.191973387710078"><ele>13.0</ele><time>2026-03-22T16:38:24Z</time></trkpt><trkpt lat="44.020484290838944" lon="8.191967943758547"><ele>13.0</ele><time>2026-03-22T16:38:29Z</time></trkpt><trkpt lat="44.02041751860353" lon="8.19196313018197"><ele>13.0</ele><time>2026-03-22T16:38:34Z</time></trkpt><trkpt lat="44.02035565758167" lon="8.191937833122134"><ele>13.0</ele><time>2026-03-22T16:38:38.999Z</time></trkpt><trkpt lat="44.02028767617195" lon="8.191929805023543"><ele>13.0</ele><time>2026-03-22T16:38:43.999Z</time></trkpt><trkpt lat="44.02021567608849" lon="8.191933385237906"><ele>13.0</ele><time>2026-03-22T16:38:49.999Z</time></trkpt><trkpt lat="44.02014643628368" lon="8.191913505947019"><ele>13.0</ele><time>2026-03-22T16:38:54.999Z</time></trkpt><trkpt lat="44.0200772630533" lon="8.191903259459206"><ele>13.0</ele><time>2026-03-22T16:38:59.999Z</time></trkpt><trkpt lat="44.020011895395506" lon="8.191881313239744"><ele>13.0</ele><time>2026-03-22T16:39:05.999Z</time></trkpt><trkpt lat="44.01994139844295" lon="8.191885086558857"><ele>13.0</ele><time>2026-03-22T16:39:10.999Z</time></trkpt><trkpt lat="44.01987545343004" lon="8.191868123536679"><ele>13.0</ele><time>2026-03-22T16:39:15.999Z</time></trkpt><trkpt lat="44.01979924370453" lon="8.191898737851496"><ele>12.142857142857142</ele><time>2026-03-22T16:39:19.999Z</time></trkpt><trkpt lat="44.01973549040042" lon="8.191859564787157"><ele>11.285714285714286</ele><time>2026-03-22T16:39:31Z</time></trkpt><trkpt lat="44.01966584126489" lon="8.19182253116743"><ele>10.428571428571429</ele><time>2026-03-22T16:39:36Z</time></trkpt><trkpt lat="44.01960294206818" lon="8.191818697467859"><ele>9.571428571428571</ele><time>2026-03-22T16:39:40Z</time></trkpt><trkpt lat="44.019526836853146" lon="8.191816134344275"><ele>8.714285714285715</ele><time>2026-03-22T16:39:46Z</time></trkpt><trkpt lat="44.019461769593285" lon="8.191810147116826"><ele>7.857142857142858</ele><time>2026-03-22T16:39:51Z</time></trkpt><trkpt lat="44.019392346584866" lon="8.191801349458398"><ele>7.0</ele><time>2026-03-22T16:39:56Z</time></trkpt><trkpt lat="44.01932704376529" lon="8.191788879405793"><ele>7.0</ele><time>2026-03-22T16:40:01Z</time></trkpt><trkpt lat="44.01924944612919" lon="8.191778654706955"><ele>7.0</ele><time>2026-03-22T16:40:06Z</time></trkpt><trkpt lat="44.0191882849344" lon="8.191743277024123"><ele>7.0</ele><time>2026-03-22T16:40:11Z</time></trkpt><trkpt lat="44.0191184486378" lon="8.19174213421224"><ele>7.0</ele><time>2026-03-22T16:40:16Z</time></trkpt><trkpt lat="44.01904703880363" lon="8.19173256059349"><ele>7.0</ele><time>2026-03-22T16:40:21Z</time></trkpt><trkpt lat="44.0189772474243" lon="8.191744699165737"><ele>7.0</ele><time>2026-03-22T16:40:26Z</time></trkpt><trkpt lat="44.01891334998205" lon="8.191754831024971"><ele>7.0</ele><time>2026-03-22T16:40:31Z</time></trkpt><trkpt lat="44.01884784051019" lon="8.191715480506476"><ele>6.571428571428571</ele><time>2026-03-22T16:40:37Z</time></trkpt><trkpt lat="44.0187775861579" lon="8.191680308955505"><ele>6.142857142857142</ele><time>2026-03-22T16:40:42.999Z</time></trkpt><trkpt lat="44.01870653478322" lon="8.191648500999788"><ele>5.714285714285714</ele><time>2026-03-22T16:40:48.999Z</time></trkpt><trkpt lat="44.01864217190936" lon="8.19164086339828"><ele>5.285714285714286</ele><time>2026-03-22T16:40:53.999Z</time></trkpt><trkpt lat="44.0185720823874" lon="8.191613943783798"><ele>4.857142857142857</ele><time>2026-03-22T16:40:58.999Z</time></trkpt><trkpt lat="44.01851036723794" lon="8.191590614507907"><ele>4.428571428571429</ele><time>2026-03-22T16:41:02.999Z</time></trkpt><trkpt lat="44.01843558991085" lon="8.191539507346333"><ele>4.0</ele><time>2026-03-22T16:41:06.999Z</time></trkpt><trkpt lat="44.018366144005526" lon="8.191514854304682"><ele>6.857142857142857</ele><time>2026-03-22T16:41:10.999Z</time></trkpt><trkpt lat="44.0183087702532" lon="8.19156136524621"><ele>9.714285714285714</ele><time>2026-03-22T16:41:15.999Z</time></trkpt><trkpt lat="44.01823997632497" lon="8.191550121184854"><ele>12.57142857142857</ele><time>2026-03-22T16:41:18.999Z</time></trkpt><trkpt lat="44.018169067846905" lon="8.191551452981436"><ele>15.428571428571427</ele><time>2026-03-22T16:41:22.999Z</time></trkpt><trkpt lat="44.018101926336534" lon="8.191550661744136"><ele>18.285714285714285</ele><time>2026-03-22T16:41:27.999Z</time></trkpt><trkpt lat="44.01803787664244" lon="8.191553419865178"><ele>21.142857142857142</ele><time>2026-03-22T16:41:31.999Z</time></trkpt><trkpt lat="44.01796562790811" lon="8.191555677213136"><ele>24.0</ele><time>2026-03-22T16:41:36Z</time></trkpt><trkpt lat="44.01790987532479" lon="8.191597347359092"><ele>23.999999999999996</ele><time>2026-03-22T16:41:41Z</time></trkpt><trkpt lat="44.01785360318237" lon="8.191658741340346"><ele>24.0</ele><time>2026-03-22T16:41:47Z</time></trkpt><trkpt lat="44.01778930644737" lon="8.191698366097835"><ele>24.0</ele><time>2026-03-22T16:41:51Z</time></trkpt><trkpt lat="44.01773228463059" lon="8.191774717907615"><ele>24.0</ele><time>2026-03-22T16:41:57Z</time></trkpt><trkpt lat="44.017682320430275" lon="8.191840071034282"><ele>24.0</ele><time>2026-03-22T16:42:03Z</time></trkpt><trkpt lat="44.01761378624356" lon="8.191888000892602"><ele>23.999999999999996</ele><time>2026-03-22T16:42:09Z</time></trkpt><trkpt lat="44.017547515988156" lon="8.19192947354097"><ele>24.0</ele><time>2026-03-22T16:42:15Z</time></trkpt><trkpt lat="44.01748723173662" lon="8.19198319462201"><ele>25.428571428571427</ele><time>2026-03-22T16:42:21Z</time></trkpt><trkpt lat="44.01742716726095" lon="8.19201087487704"><ele>26.857142857142854</ele><time>2026-03-22T16:42:26Z</time></trkpt><trkpt lat="44.01736260457456" lon="8.192030522502577"><ele>28.285714285714285</ele><time>2026-03-22T16:42:31Z</time></trkpt><trkpt lat="44.017290396845965" lon="8.192057454010502"><ele>29.71428571428571</ele><time>2026-03-22T16:42:38Z</time></trkpt><trkpt lat="44.017216515522" lon="8.19208031430573"><ele>31.142857142857142</ele><time>2026-03-22T16:42:43Z</time></trkpt><trkpt lat="44.01714248350162" lon="8.192083546343552"><ele>32.57142857142857</ele><time>2026-03-22T16:42:47.999Z</time></trkpt><trkpt lat="44.01708006075033" lon="8.192136398198256"><ele>34.0</ele><time>2026-03-22T16:42:52.999Z</time></trkpt><trkpt lat="44.017019358260825" lon="8.192213433256864"><ele>33.99999999999999</ele><time>2026-03-22T16:42:58.999Z</time></trkpt><trkpt lat="44.01695070900081" lon="8.19225387990151"><ele>34.0</ele><time>2026-03-22T16:43:04.999Z</time></trkpt><trkpt lat="44.01689002505376" lon="8.192281239651507"><ele>34.0</ele><time>2026-03-22T16:43:10.999Z</time></trkpt><trkpt lat="44.016826775974806" lon="8.19231454263118"><ele>34.0</ele><time>2026-03-22T16:43:15.999Z</time></trkpt><trkpt lat="44.016766410480535" lon="8.192350545581089"><ele>34.0</ele><time>2026-03-22T16:43:20.999Z</time></trkpt><trkpt lat="44.01669831136052" lon="8.192407730435859"><ele>33.99999999999999</ele><time>2026-03-22T16:43:26.999Z</time></trkpt><trkpt lat="44.01664541657833" lon="8.192479792371522"><ele>34.0</ele><time>2026-03-22T16:43:32.999Z</time></trkpt><trkpt lat="44.01657860281881" lon="8.192527895167263"><ele>29.999999999999996</ele><time>2026-03-22T16:43:38.999Z</time></trkpt><trkpt lat="44.01651491388032" lon="8.192558284967083"><ele>26.0</ele><time>2026-03-22T16:43:44Z</time></trkpt><trkpt lat="44.01645326974876" lon="8.192593135129446"><ele>22.0</ele><time>2026-03-22T16:43:50Z</time></trkpt><trkpt lat="44.01639424551172" lon="8.192627314949549"><ele>17.999999999999996</ele><time>2026-03-22T16:43:55Z</time></trkpt><trkpt lat="44.01633807934597" lon="8.192667744264535"><ele>14.0</ele><time>2026-03-22T16:43:59Z</time></trkpt><trkpt lat="44.01627704373216" lon="8.192716441664917"><ele>10.0</ele><time>2026-03-22T16:44:05Z</time></trkpt><trkpt lat="44.016214361624584" lon="8.192758126251523"><ele>6.0</ele><time>2026-03-22T16:44:11Z</time></trkpt><trkpt lat="44.016152022979384" lon="8.192793445557635"><ele>5.999999999999999</ele><time>2026-03-22T16:44:17Z</time></trkpt><trkpt lat="44.0160913038051" lon="8.192817033655595"><ele>6.0</ele><time>2026-03-22T16:44:22Z</time></trkpt><trkpt lat="44.01602471664954" lon="8.192830383577228"><ele>6.0</ele><time>2026-03-22T16:44:27Z</time></trkpt><trkpt lat="44.015959214938206" lon="8.192802536992236"><ele>6.0</ele><time>2026-03-22T16:44:36Z</time></trkpt><trkpt lat="44.015901153218145" lon="8.19284044220662"><ele>6.0</ele><time>2026-03-22T16:44:42Z</time></trkpt><trkpt lat="44.01586417557041" lon="8.192759835283372"><ele>5.999999999999999</ele><time>2026-03-22T16:44:48Z</time></trkpt><trkpt lat="44.01583245500435" lon="8.1926754539925"><ele>6.0</ele><time>2026-03-22T16:44:51Z</time></trkpt><trkpt lat="44.01579705910663" lon="8.192586665868339"><ele>5.571428571428571</ele><time>2026-03-22T16:44:54Z</time></trkpt><trkpt lat="44.01578370968768" lon="8.192478437351637"><ele>5.142857142857142</ele><time>2026-03-22T16:45:00.999Z</time></trkpt><trkpt lat="44.01579112702861" lon="8.192376367741979"><ele>4.7142857142857135</ele><time>2026-03-22T16:45:06.999Z</time></trkpt><trkpt lat="44.01577762965738" lon="8.192289636778964"><ele>4.285714285714286</ele><time>2026-03-22T16:45:11.999Z</time></trkpt><trkpt lat="44.015749004973266" lon="8.192202021104876"><ele>3.8571428571428568</ele><time>2026-03-22T16:45:17.999Z</time></trkpt><trkpt lat="44.01571686204158" lon="8.192119984957735"><ele>3.4285714285714284</ele><time>2026-03-22T16:45:22.999Z</time></trkpt><trkpt lat="44.01568921584288" lon="8.192037773211647"><ele>3.0</ele><time>2026-03-22T16:45:28.999Z</time></trkpt><trkpt lat="44.01569946782912" lon="8.191933958976781"><ele>2.9999999999999996</ele><time>2026-03-22T16:45:33.999Z</time></trkpt><trkpt lat="44.01570938271178" lon="8.191843295134769"><ele>3.0</ele><time>2026-03-22T16:45:37.999Z</time></trkpt><trkpt lat="44.01569590305503" lon="8.191748848663869"><ele>3.0</ele><time>2026-03-22T16:45:42.999Z</time></trkpt><trkpt lat="44.01568232726115" lon="8.191650586806675"><ele>3.0</ele><time>2026-03-22T16:45:48Z</time></trkpt><trkpt lat="44.01567029488931" lon="8.191559595555919"><ele>3.0</ele><time>2026-03-22T16:45:53Z</time></trkpt><trkpt lat="44.01567065796927" lon="8.19146280652514"><ele>2.9999999999999996</ele><time>2026-03-22T16:45:58Z</time></trkpt><trkpt lat="44.01566836439218" lon="8.191372170327595"><ele>3.0</ele><time>2026-03-22T16:46:03Z</time></trkpt><trkpt lat="44.015684574070505" lon="8.191276903286346"><ele>2.9999999999999996</ele><time>2026-03-22T16:46:09Z</time></trkpt><trkpt lat="44.015713699600404" lon="8.191192126138962"><ele>3.0</ele><time>2026-03-22T16:46:15Z</time></trkpt><trkpt lat="44.01575052359214" lon="8.191111838330713"><ele>3.0</ele><time>2026-03-22T16:46:20Z</time></trkpt><trkpt lat="44.015788812313325" lon="8.191037287497577"><ele>3.0</ele><time>2026-03-22T16:46:25Z</time></trkpt><trkpt lat="44.01581190470367" lon="8.190945715341126"><ele>3.0</ele><time>2026-03-22T16:46:30Z</time></trkpt><trkpt lat="44.01584149554996" lon="8.19086041382412"><ele>2.9999999999999996</ele><time>2026-03-22T16:46:35Z</time></trkpt><trkpt lat="44.01587113180733" lon="8.190779208190742"><ele>3.0</ele><time>2026-03-22T16:46:40Z</time></trkpt><trkpt lat="44.01589791690167" lon="8.190693604907985"><ele>4.428571428571429</ele><time>2026-03-22T16:46:45Z</time></trkpt><trkpt lat="44.01591453292743" lon="8.190594995642746"><ele>5.857142857142858</ele><time>2026-03-22T16:46:50Z</time></trkpt><trkpt lat="44.015932639866676" lon="8.190498859407132"><ele>7.285714285714286</ele><time>2026-03-22T16:46:55Z</time></trkpt><trkpt lat="44.01593474525626" lon="8.190402931559106"><ele>8.714285714285715</ele><time>2026-03-22T16:47:00Z</time></trkpt><trkpt lat="44.01595957514275" lon="8.190315811392242"><ele>10.142857142857144</ele><time>2026-03-22T16:47:04.999Z</time></trkpt><trkpt lat="44.015948925465196" lon="8.190216155843347"><ele>11.571428571428571</ele><time>2026-03-22T16:47:09.999Z</time></trkpt><trkpt lat="44.01595443551758" lon="8.190128108921163"><ele>13.0</ele><time>2026-03-22T16:47:14.999Z</time></trkpt><trkpt lat="44.01597864547652" lon="8.190037349944483"><ele>12.999999999999998</ele><time>2026-03-22T16:47:20.999Z</time></trkpt><trkpt lat="44.015996756303814" lon="8.18994816434471"><ele>13.0</ele><time>2026-03-22T16:47:27.999Z</time></trkpt><trkpt lat="44.01602909420158" lon="8.189856453015972"><ele>13.0</ele><time>2026-03-22T16:47:36.999Z</time></trkpt><trkpt lat="44.016039196053825" lon="8.189757229584648"><ele>13.0</ele><time>2026-03-22T16:47:42.999Z</time></trkpt><trkpt lat="44.01614239301886" lon="8.189807433382114"><ele>12.999999999999998</ele><time>2026-03-22T16:48:30Z</time></trkpt><trkpt lat="44.016095585468314" lon="8.189739000267199"><ele>13.0</ele><time>2026-03-22T16:50:26Z</time></trkpt><trkpt lat="44.01617665618526" lon="8.189675712473974"><ele>13.0</ele><time>2026-03-22T16:50:29Z</time></trkpt><trkpt lat="44.0162120159498" lon="8.189749272176362"><ele>13.0</ele><time>2026-03-22T16:50:32Z</time></trkpt><trkpt lat="44.01616140553183" lon="8.18987538211707"><ele>13.0</ele><time>2026-03-22T16:50:40Z</time></trkpt><trkpt lat="44.01653478175312" lon="8.190121777017422"><ele>13.0</ele><time>2026-03-22T16:51:22Z</time></trkpt><trkpt lat="44.01635728874114" lon="8.19005818641739"><ele>13.0</ele><time>2026-03-22T16:51:24Z</time></trkpt><trkpt lat="44.01628256193543" lon="8.189986588673916"><ele>13.0</ele><time>2026-03-22T16:52:54Z</time></trkpt><trkpt lat="44.01634858593241" lon="8.190050169782273"><ele>13.0</ele><time>2026-03-22T16:53:03Z</time></trkpt><trkpt lat="44.0160960013178" lon="8.189809611278978"><ele>13.0</ele><time>2026-03-22T16:53:24Z</time></trkpt><trkpt lat="44.016388002103575" lon="8.19019255011577"><ele>13.0</ele><time>2026-03-22T16:54:11.999Z</time></trkpt><trkpt lat="44.01609015867843" lon="8.189799200442865"><ele>11.0</ele><time>2026-03-22T16:54:33.151Z</time></trkpt><trkpt lat="44.01638812668447" lon="8.190193037584033"><ele>13.0</ele><time>2026-03-22T16:55:16Z</time></trkpt></trkseg></trk></gpx>